PDA7UM UKBB-CYYC
Flight info
| Callsign | PDA7UM |
|---|---|
| Flight time | 9h 41m |
| Altitude | 36000 |
| Route | KAFEL T731 OKROT M70 TOLPA/N0483F360 DCT UDROV DCT BUNOS DCT KAL DCT UMTON DCT LILBA DCT ABMAT DCT TEDVU DCT 67N001E/M085F360 69N005W/M085F380 71N011W 73N019W 75N037W 75N059W/N0493F380 73N077W 71N085W 69N091W/N0496F400 67N097W 63N105W 61N107W 59N109W DCT YMM Q856 CACHO/N0483F410 Q882 DUDNI BIRKO6 |
| Aircraft | A359/H-SDE2E3GHIJ3J4J5LM1ORWXY/LB1D1 |
Departure
| Time | 2026-05-05 13:53 |
|---|---|
| Airport | Boryspil International Airport (UKBB) |
Arrival
| Time | 2026-05-05 23:35 |
|---|---|
| Airport | Calgary International Airport (CYYC) |
| Time | Latitude | Longitude | Altitude | Speed | Heading |
|---|---|---|---|---|---|
| 2026-05-05 12:34 | 50.33427 | 30.89592 | 410 ft | 0 kts | 182° |
| 2026-05-05 13:44 | 50.33424 | 30.89591 | 421 ft | 2 kts | 182° |
| 2026-05-05 13:44 | 50.33383 | 30.89590 | 413 ft | 8 kts | 181° |
| 2026-05-05 13:45 | 50.33344 | 30.89632 | 408 ft | 8 kts | 111° |
| 2026-05-05 13:45 | 50.33337 | 30.89744 | 411 ft | 13 kts | 93° |
| 2026-05-05 13:45 | 50.33332 | 30.89901 | 415 ft | 15 kts | 93° |
| 2026-05-05 13:45 | 50.33328 | 30.90065 | 414 ft | 14 kts | 89° |
| 2026-05-05 13:46 | 50.33391 | 30.90127 | 418 ft | 12 kts | 3° |
| 2026-05-05 13:46 | 50.33474 | 30.90132 | 412 ft | 12 kts | 2° |
| 2026-05-05 13:46 | 50.33561 | 30.90138 | 412 ft | 13 kts | 3° |
| 2026-05-05 13:46 | 50.33651 | 30.90146 | 414 ft | 13 kts | 3° |
| 2026-05-05 13:47 | 50.33749 | 30.90154 | 421 ft | 15 kts | 2° |
| 2026-05-05 13:47 | 50.33857 | 30.90162 | 417 ft | 16 kts | 2° |
| 2026-05-05 13:47 | 50.33975 | 30.90170 | 419 ft | 17 kts | 2° |
| 2026-05-05 13:47 | 50.34101 | 30.90179 | 411 ft | 19 kts | 2° |
| 2026-05-05 13:48 | 50.34237 | 30.90189 | 413 ft | 20 kts | 2° |
| 2026-05-05 13:48 | 50.34380 | 30.90199 | 412 ft | 21 kts | 3° |
| 2026-05-05 13:48 | 50.34525 | 30.90210 | 420 ft | 21 kts | 3° |
| 2026-05-05 13:48 | 50.34670 | 30.90220 | 417 ft | 21 kts | 3° |
| 2026-05-05 13:49 | 50.34815 | 30.90231 | 413 ft | 21 kts | 2° |
| 2026-05-05 13:49 | 50.34959 | 30.90242 | 412 ft | 21 kts | 3° |
| 2026-05-05 13:49 | 50.35103 | 30.90253 | 417 ft | 21 kts | 2° |
| 2026-05-05 13:49 | 50.35246 | 30.90263 | 413 ft | 21 kts | 2° |
| 2026-05-05 13:50 | 50.35394 | 30.90273 | 412 ft | 21 kts | 3° |
| 2026-05-05 13:50 | 50.35537 | 30.90285 | 417 ft | 21 kts | 2° |
| 2026-05-05 13:50 | 50.35683 | 30.90295 | 414 ft | 21 kts | 3° |
| 2026-05-05 13:50 | 50.35830 | 30.90306 | 411 ft | 21 kts | 2° |
| 2026-05-05 13:51 | 50.35959 | 30.90315 | 417 ft | 16 kts | 2° |
| 2026-05-05 13:51 | 50.36057 | 30.90361 | 416 ft | 11 kts | 41° |
| 2026-05-05 13:51 | 50.36086 | 30.90462 | 412 ft | 10 kts | 84° |
| 2026-05-05 13:51 | 50.36070 | 30.90554 | 412 ft | 8 kts | 122° |
| 2026-05-05 13:52 | 50.36036 | 30.90617 | 415 ft | 8 kts | 130° |
| 2026-05-05 13:52 | 50.35994 | 30.90643 | 415 ft | 3 kts | 182° |
| 2026-05-05 13:52 | 50.35958 | 30.90640 | 421 ft | 24 kts | 182° |
| 2026-05-05 13:53 | 50.35533 | 30.90607 | 412 ft | 98 kts | 182° |
| 2026-05-05 13:53 | 50.34620 | 30.90542 | 420 ft | 162 kts | 183° |
| 2026-05-05 13:53 | 50.33403 | 30.90457 | 933 ft | 176 kts | 183° |
| 2026-05-05 13:53 | 50.32204 | 30.90377 | 1866 ft | 168 kts | 184° |
| 2026-05-05 13:54 | 50.31038 | 30.90211 | 2271 ft | 170 kts | 188° |
| 2026-05-05 13:54 | 50.29858 | 30.90016 | 2578 ft | 174 kts | 187° |
| 2026-05-05 13:54 | 50.28605 | 30.89907 | 2727 ft | 187 kts | 183° |
| 2026-05-05 13:54 | 50.27256 | 30.89837 | 2924 ft | 199 kts | 182° |
| 2026-05-05 13:55 | 50.25834 | 30.89760 | 3126 ft | 211 kts | 185° |
| 2026-05-05 13:55 | 50.24354 | 30.89212 | 3224 ft | 228 kts | 204° |
| 2026-05-05 13:55 | 50.23105 | 30.87637 | 3346 ft | 244 kts | 235° |
| 2026-05-05 13:55 | 50.22629 | 30.85032 | 3651 ft | 257 kts | 269° |
| 2026-05-05 13:56 | 50.23138 | 30.82365 | 4113 ft | 263 kts | 293° |
| 2026-05-05 13:56 | 50.24010 | 30.79848 | 4637 ft | 265 kts | 296° |
| 2026-05-05 13:56 | 50.24906 | 30.77317 | 5163 ft | 267 kts | 296° |
| 2026-05-05 13:56 | 50.25789 | 30.74752 | 5689 ft | 269 kts | 295° |
| 2026-05-05 13:57 | 50.26660 | 30.72149 | 6199 ft | 271 kts | 294° |
| 2026-05-05 13:57 | 50.27518 | 30.69517 | 6746 ft | 271 kts | 294° |
| 2026-05-05 13:57 | 50.28371 | 30.66872 | 7266 ft | 272 kts | 294° |
| 2026-05-05 13:57 | 50.29209 | 30.64259 | 7797 ft | 272 kts | 295° |
| 2026-05-05 13:58 | 50.30070 | 30.61598 | 8284 ft | 275 kts | 295° |
| 2026-05-05 13:58 | 50.30930 | 30.58942 | 8912 ft | 274 kts | 295° |
| 2026-05-05 13:58 | 50.31791 | 30.56255 | 9425 ft | 277 kts | 295° |
| 2026-05-05 13:58 | 50.32658 | 30.53539 | 9868 ft | 282 kts | 296° |
| 2026-05-05 13:59 | 50.34472 | 30.47859 | 10418 ft | 303 kts | 296° |
| 2026-05-05 13:59 | 50.35426 | 30.44852 | 10663 ft | 314 kts | 296° |
| 2026-05-05 14:00 | 50.37443 | 30.38484 | 11111 ft | 337 kts | 296° |
| 2026-05-05 14:00 | 50.38140 | 30.36276 | 11254 ft | 345 kts | 296° |
| 2026-05-05 14:00 | 50.39576 | 30.31705 | 11503 ft | 359 kts | 296° |
| 2026-05-05 14:00 | 50.40610 | 30.28083 | 11705 ft | 369 kts | 291° |
| 2026-05-05 14:01 | 50.41455 | 30.24235 | 11907 ft | 378 kts | 289° |
| 2026-05-05 14:01 | 50.42262 | 30.20274 | 12166 ft | 385 kts | 288° |
| 2026-05-05 14:01 | 50.43078 | 30.16254 | 12536 ft | 388 kts | 288° |
| 2026-05-05 14:01 | 50.43895 | 30.12217 | 12984 ft | 389 kts | 288° |
| 2026-05-05 14:02 | 50.44721 | 30.08141 | 13303 ft | 393 kts | 289° |
| 2026-05-05 14:02 | 50.45554 | 30.04043 | 13724 ft | 395 kts | 289° |
| 2026-05-05 14:02 | 50.46387 | 29.99934 | 14106 ft | 396 kts | 288° |
| 2026-05-05 14:02 | 50.47216 | 29.95836 | 14478 ft | 398 kts | 288° |
| 2026-05-05 14:03 | 50.48054 | 29.91688 | 14821 ft | 400 kts | 288° |
| 2026-05-05 14:03 | 50.48895 | 29.87505 | 15198 ft | 401 kts | 288° |
| 2026-05-05 14:03 | 50.49737 | 29.83318 | 15566 ft | 403 kts | 289° |
| 2026-05-05 14:03 | 50.50582 | 29.79108 | 15893 ft | 406 kts | 289° |
| 2026-05-05 14:04 | 50.51429 | 29.74873 | 16300 ft | 406 kts | 289° |
| 2026-05-05 14:04 | 50.52278 | 29.70639 | 16698 ft | 407 kts | 288° |
| 2026-05-05 14:04 | 50.53135 | 29.66361 | 16966 ft | 412 kts | 288° |
| 2026-05-05 14:04 | 50.53994 | 29.62060 | 17355 ft | 413 kts | 288° |
| 2026-05-05 14:05 | 50.54852 | 29.57739 | 17702 ft | 414 kts | 288° |
| 2026-05-05 14:05 | 50.55708 | 29.53424 | 18154 ft | 414 kts | 288° |
| 2026-05-05 14:05 | 50.56274 | 29.50561 | 18400 ft | 414 kts | 288° |
| 2026-05-05 14:05 | 50.57134 | 29.46213 | 18655 ft | 417 kts | 288° |
| 2026-05-05 14:06 | 50.57993 | 29.41856 | 18955 ft | 418 kts | 288° |
| 2026-05-05 14:06 | 50.58857 | 29.37466 | 19220 ft | 421 kts | 287° |
| 2026-05-05 14:06 | 50.59727 | 29.33053 | 19554 ft | 422 kts | 288° |
| 2026-05-05 14:06 | 50.60511 | 29.28583 | 19772 ft | 426 kts | 282° |
| 2026-05-05 14:07 | 50.61004 | 29.23964 | 20077 ft | 427 kts | 278° |
| 2026-05-05 14:07 | 50.61343 | 29.19368 | 20419 ft | 429 kts | 276° |
| 2026-05-05 14:07 | 50.61610 | 29.14701 | 20809 ft | 428 kts | 275° |
| 2026-05-05 14:07 | 50.61851 | 29.10003 | 21038 ft | 431 kts | 274° |
| 2026-05-05 14:08 | 50.62087 | 29.05285 | 21314 ft | 434 kts | 274° |
| 2026-05-05 14:08 | 50.62338 | 29.00534 | 21627 ft | 435 kts | 275° |
| 2026-05-05 14:08 | 50.62597 | 28.95786 | 21945 ft | 437 kts | 275° |
| 2026-05-05 14:08 | 50.62865 | 28.91016 | 22333 ft | 437 kts | 275° |
| 2026-05-05 14:09 | 50.63138 | 28.86227 | 22509 ft | 441 kts | 275° |
| 2026-05-05 14:09 | 50.63410 | 28.81383 | 22713 ft | 445 kts | 275° |
| 2026-05-05 14:09 | 50.63680 | 28.76527 | 23110 ft | 444 kts | 274° |
| 2026-05-05 14:09 | 50.63945 | 28.71665 | 23433 ft | 446 kts | 274° |
| 2026-05-05 14:10 | 50.64212 | 28.66774 | 23640 ft | 449 kts | 274° |
| 2026-05-05 14:10 | 50.64482 | 28.61856 | 23863 ft | 451 kts | 274° |
| 2026-05-05 14:10 | 50.64757 | 28.56912 | 23975 ft | 456 kts | 275° |
| 2026-05-05 14:10 | 50.65031 | 28.51923 | 24257 ft | 457 kts | 275° |
| 2026-05-05 14:11 | 50.65299 | 28.46930 | 24561 ft | 457 kts | 275° |
| 2026-05-05 14:11 | 50.65565 | 28.41931 | 24756 ft | 460 kts | 275° |
| 2026-05-05 14:11 | 50.65831 | 28.36899 | 24989 ft | 462 kts | 275° |
| 2026-05-05 14:11 | 50.66091 | 28.31901 | 25220 ft | 464 kts | 275° |
| 2026-05-05 14:12 | 50.66350 | 28.26835 | 25489 ft | 465 kts | 275° |
| 2026-05-05 14:12 | 50.66609 | 28.21750 | 25770 ft | 466 kts | 275° |
| 2026-05-05 14:12 | 50.66868 | 28.16638 | 25983 ft | 469 kts | 275° |
| 2026-05-05 14:12 | 50.67128 | 28.11502 | 26225 ft | 470 kts | 275° |
| 2026-05-05 14:13 | 50.67383 | 28.06364 | 26545 ft | 471 kts | 275° |
| 2026-05-05 14:13 | 50.67636 | 28.01217 | 26816 ft | 472 kts | 275° |
| 2026-05-05 14:13 | 50.67889 | 27.96028 | 27018 ft | 475 kts | 275° |
| 2026-05-05 14:13 | 50.68146 | 27.90823 | 27227 ft | 478 kts | 275° |
| 2026-05-05 14:14 | 50.68394 | 27.85590 | 27507 ft | 479 kts | 275° |
| 2026-05-05 14:14 | 50.68642 | 27.80349 | 27789 ft | 479 kts | 275° |
| 2026-05-05 14:14 | 50.68893 | 27.75096 | 27963 ft | 482 kts | 275° |
| 2026-05-05 14:14 | 50.69137 | 27.69805 | 28183 ft | 484 kts | 275° |
| 2026-05-05 14:15 | 50.69380 | 27.64553 | 28426 ft | 485 kts | 275° |
| 2026-05-05 14:15 | 50.69628 | 27.59243 | 28782 ft | 484 kts | 275° |
| 2026-05-05 14:15 | 50.69869 | 27.53944 | 29006 ft | 486 kts | 275° |
| 2026-05-05 14:15 | 50.70106 | 27.48623 | 29209 ft | 487 kts | 275° |
| 2026-05-05 14:16 | 50.70340 | 27.43288 | 29477 ft | 487 kts | 275° |
| 2026-05-05 14:16 | 50.70606 | 27.37972 | 29801 ft | 485 kts | 278° |
| 2026-05-05 14:16 | 50.71192 | 27.32733 | 30001 ft | 485 kts | 284° |
| 2026-05-05 14:16 | 50.72017 | 27.27565 | 30197 ft | 486 kts | 286° |
| 2026-05-05 14:17 | 50.72897 | 27.22421 | 30416 ft | 485 kts | 286° |
| 2026-05-05 14:17 | 50.73801 | 27.17292 | 30710 ft | 484 kts | 287° |
| 2026-05-05 14:17 | 50.74708 | 27.12207 | 31127 ft | 479 kts | 287° |
| 2026-05-05 14:17 | 50.75612 | 27.07170 | 31490 ft | 476 kts | 287° |
| 2026-05-05 14:18 | 50.76516 | 27.02113 | 31630 ft | 478 kts | 287° |
| 2026-05-05 14:18 | 50.77398 | 26.97129 | 31811 ft | 478 kts | 286° |
| 2026-05-05 14:18 | 50.78286 | 26.92057 | 32074 ft | 478 kts | 286° |
| 2026-05-05 14:18 | 50.79166 | 26.87006 | 32346 ft | 477 kts | 286° |
| 2026-05-05 14:19 | 50.80041 | 26.81961 | 32627 ft | 475 kts | 286° |
| 2026-05-05 14:19 | 50.80910 | 26.76937 | 32838 ft | 475 kts | 286° |
| 2026-05-05 14:19 | 50.81783 | 26.71885 | 33028 ft | 475 kts | 285° |
| 2026-05-05 14:19 | 50.82648 | 26.66835 | 33214 ft | 475 kts | 285° |
| 2026-05-05 14:20 | 50.83511 | 26.61793 | 33549 ft | 472 kts | 285° |
| 2026-05-05 14:20 | 50.84372 | 26.56773 | 33784 ft | 471 kts | 285° |
| 2026-05-05 14:20 | 50.85232 | 26.51773 | 34009 ft | 470 kts | 285° |
| 2026-05-05 14:20 | 50.86090 | 26.46774 | 34128 ft | 471 kts | 285° |
| 2026-05-05 14:21 | 50.86953 | 26.41759 | 34262 ft | 472 kts | 285° |
| 2026-05-05 14:21 | 50.87806 | 26.36738 | 34393 ft | 472 kts | 285° |
| 2026-05-05 14:21 | 50.88641 | 26.31783 | 34630 ft | 470 kts | 285° |
| 2026-05-05 14:21 | 50.89480 | 26.26782 | 34888 ft | 467 kts | 285° |
| 2026-05-05 14:22 | 50.90309 | 26.21821 | 35076 ft | 466 kts | 285° |
| 2026-05-05 14:22 | 50.91139 | 26.16856 | 35220 ft | 466 kts | 285° |
| 2026-05-05 14:22 | 50.92800 | 26.06891 | 35458 ft | 467 kts | 285° |
| 2026-05-05 14:23 | 50.93626 | 26.01921 | 35608 ft | 466 kts | 284° |
| 2026-05-05 14:23 | 50.94448 | 25.96960 | 35799 ft | 464 kts | 284° |
| 2026-05-05 14:23 | 50.96086 | 25.87030 | 35869 ft | 468 kts | 284° |
| 2026-05-05 14:24 | 50.97731 | 25.76983 | 35868 ft | 471 kts | 284° |
| 2026-05-05 14:24 | 50.99360 | 25.66970 | 35867 ft | 470 kts | 284° |
| 2026-05-05 14:25 | 51.00993 | 25.56908 | 35868 ft | 470 kts | 284° |
| 2026-05-05 14:25 | 51.02615 | 25.46844 | 35865 ft | 470 kts | 284° |
| 2026-05-05 14:26 | 51.04226 | 25.36783 | 35868 ft | 470 kts | 283° |
| 2026-05-05 14:26 | 51.05817 | 25.26788 | 35867 ft | 469 kts | 284° |
| 2026-05-05 14:27 | 51.07407 | 25.16738 | 35868 ft | 468 kts | 283° |
| 2026-05-05 14:27 | 51.08986 | 25.06685 | 35867 ft | 468 kts | 283° |
| 2026-05-05 14:28 | 51.10558 | 24.96620 | 35867 ft | 468 kts | 283° |
| 2026-05-05 14:28 | 51.12123 | 24.86540 | 35867 ft | 467 kts | 283° |
| 2026-05-05 14:29 | 51.13663 | 24.76557 | 35867 ft | 467 kts | 283° |
| 2026-05-05 14:29 | 51.15204 | 24.66503 | 35867 ft | 467 kts | 283° |
| 2026-05-05 14:30 | 51.16736 | 24.56448 | 35866 ft | 467 kts | 283° |
| 2026-05-05 14:30 | 51.18260 | 24.46381 | 35872 ft | 467 kts | 283° |
| 2026-05-05 14:31 | 51.19772 | 24.36333 | 35861 ft | 465 kts | 283° |
| 2026-05-05 14:31 | 51.21264 | 24.26354 | 35861 ft | 465 kts | 282° |
| 2026-05-05 14:32 | 51.22754 | 24.16322 | 35861 ft | 465 kts | 282° |
| 2026-05-05 14:32 | 51.24236 | 24.06277 | 35861 ft | 465 kts | 282° |
| 2026-05-05 14:33 | 51.25710 | 23.96228 | 35861 ft | 465 kts | 282° |
| 2026-05-05 14:33 | 51.27178 | 23.86158 | 35861 ft | 465 kts | 282° |
| 2026-05-05 14:34 | 51.28641 | 23.76093 | 35855 ft | 465 kts | 283° |
| 2026-05-05 14:34 | 51.30975 | 23.66452 | 35859 ft | 467 kts | 298° |
| 2026-05-05 14:35 | 51.34991 | 23.58288 | 35869 ft | 470 kts | 315° |
| 2026-05-05 14:35 | 51.39899 | 23.51338 | 35857 ft | 471 kts | 317° |
| 2026-05-05 14:36 | 51.44929 | 23.44597 | 35849 ft | 471 kts | 318° |
| 2026-05-05 14:36 | 51.49916 | 23.37883 | 35850 ft | 471 kts | 317° |
| 2026-05-05 14:37 | 51.54918 | 23.31063 | 35852 ft | 471 kts | 317° |
| 2026-05-05 14:37 | 51.59898 | 23.24222 | 35850 ft | 471 kts | 317° |
| 2026-05-05 14:38 | 51.64871 | 23.17364 | 35842 ft | 471 kts | 317° |
| 2026-05-05 14:38 | 51.69846 | 23.10486 | 35847 ft | 470 kts | 317° |
| 2026-05-05 14:39 | 51.74808 | 23.03609 | 35840 ft | 470 kts | 317° |
| 2026-05-05 14:39 | 51.79767 | 22.96713 | 35843 ft | 470 kts | 316° |
| 2026-05-05 14:40 | 51.84690 | 22.89850 | 35835 ft | 470 kts | 316° |
| 2026-05-05 14:40 | 51.89631 | 22.82938 | 35835 ft | 470 kts | 316° |
| 2026-05-05 14:41 | 51.94573 | 22.76004 | 35834 ft | 469 kts | 316° |
| 2026-05-05 14:41 | 51.99509 | 22.69058 | 35834 ft | 469 kts | 316° |
| 2026-05-05 14:42 | 52.04442 | 22.62095 | 35831 ft | 469 kts | 316° |
| 2026-05-05 14:42 | 52.09361 | 22.55134 | 35815 ft | 469 kts | 316° |
| 2026-05-05 14:43 | 52.14238 | 22.48208 | 35831 ft | 468 kts | 316° |
| 2026-05-05 14:43 | 52.19148 | 22.41214 | 35826 ft | 468 kts | 316° |
| 2026-05-05 14:44 | 52.24054 | 22.34203 | 35813 ft | 468 kts | 316° |
| 2026-05-05 14:44 | 52.28919 | 22.27231 | 35811 ft | 468 kts | 315° |
| 2026-05-05 14:45 | 52.33829 | 22.20184 | 35812 ft | 470 kts | 315° |
| 2026-05-05 14:45 | 52.38754 | 22.13083 | 35806 ft | 471 kts | 315° |
| 2026-05-05 14:46 | 52.43662 | 22.05976 | 35808 ft | 470 kts | 315° |
| 2026-05-05 14:46 | 52.48563 | 21.98861 | 35800 ft | 469 kts | 315° |
| 2026-05-05 14:47 | 52.53424 | 21.91786 | 35808 ft | 469 kts | 315° |
| 2026-05-05 14:47 | 52.58301 | 21.84667 | 35796 ft | 469 kts | 315° |
| 2026-05-05 14:48 | 52.63183 | 21.77516 | 35800 ft | 469 kts | 315° |
| 2026-05-05 14:48 | 52.68057 | 21.70357 | 35797 ft | 469 kts | 315° |
| 2026-05-05 14:49 | 52.72926 | 21.63182 | 35794 ft | 469 kts | 315° |
| 2026-05-05 14:49 | 52.77789 | 21.55993 | 35814 ft | 470 kts | 314° |
| 2026-05-05 14:50 | 52.82632 | 21.48805 | 35801 ft | 471 kts | 314° |
| 2026-05-05 14:50 | 52.87518 | 21.41541 | 35801 ft | 471 kts | 314° |
| 2026-05-05 14:51 | 52.92395 | 21.34267 | 35808 ft | 472 kts | 314° |
| 2026-05-05 14:51 | 52.97270 | 21.26971 | 35810 ft | 472 kts | 314° |
| 2026-05-05 14:52 | 53.02132 | 21.19671 | 35811 ft | 472 kts | 313° |
| 2026-05-05 14:52 | 53.06968 | 21.12385 | 35818 ft | 472 kts | 313° |
| 2026-05-05 14:53 | 53.11827 | 21.05042 | 35818 ft | 472 kts | 313° |
| 2026-05-05 14:53 | 53.16687 | 20.97677 | 35830 ft | 472 kts | 313° |
| 2026-05-05 14:54 | 53.21538 | 20.90298 | 35833 ft | 472 kts | 313° |
| 2026-05-05 14:54 | 53.26397 | 20.82902 | 35837 ft | 472 kts | 313° |
| 2026-05-05 14:55 | 53.31337 | 20.75652 | 35838 ft | 472 kts | 314° |
| 2026-05-05 14:55 | 53.36311 | 20.68464 | 35845 ft | 472 kts | 314° |
| 2026-05-05 14:56 | 53.40437 | 20.62478 | 35845 ft | 472 kts | 314° |
| 2026-05-05 14:56 | 53.46197 | 20.54063 | 35848 ft | 472 kts | 314° |
| 2026-05-05 14:57 | 53.51141 | 20.46801 | 35865 ft | 472 kts | 314° |
| 2026-05-05 14:57 | 53.56079 | 20.39524 | 35856 ft | 472 kts | 314° |
| 2026-05-05 14:58 | 53.60217 | 20.33409 | 35857 ft | 472 kts | 314° |
| 2026-05-05 14:58 | 53.65145 | 20.26104 | 35865 ft | 472 kts | 314° |
| 2026-05-05 14:59 | 53.70044 | 20.18818 | 35866 ft | 472 kts | 314° |
| 2026-05-05 14:59 | 53.74966 | 20.11475 | 35869 ft | 472 kts | 313° |
| 2026-05-05 15:00 | 53.79056 | 20.05360 | 35866 ft | 472 kts | 314° |
| 2026-05-05 15:00 | 53.84809 | 19.96736 | 35870 ft | 472 kts | 313° |
| 2026-05-05 15:01 | 53.89717 | 19.89350 | 35878 ft | 472 kts | 313° |
| 2026-05-05 15:01 | 53.94583 | 19.81980 | 35889 ft | 472 kts | 313° |
| 2026-05-05 15:02 | 53.99482 | 19.74544 | 35890 ft | 471 kts | 313° |
| 2026-05-05 15:02 | 54.04364 | 19.67114 | 35897 ft | 471 kts | 313° |
| 2026-05-05 15:03 | 54.09244 | 19.59665 | 35900 ft | 471 kts | 313° |
| 2026-05-05 15:03 | 54.14121 | 19.52198 | 35907 ft | 471 kts | 313° |
| 2026-05-05 15:04 | 54.18995 | 19.44708 | 35906 ft | 471 kts | 313° |
| 2026-05-05 15:04 | 54.23833 | 19.37254 | 35907 ft | 472 kts | 312° |
| 2026-05-05 15:05 | 54.31149 | 19.25928 | 35922 ft | 472 kts | 312° |
| 2026-05-05 15:06 | 54.36024 | 19.18350 | 35911 ft | 472 kts | 312° |
| 2026-05-05 15:06 | 54.40865 | 19.10800 | 35916 ft | 472 kts | 312° |
| 2026-05-05 15:07 | 54.45719 | 19.03204 | 35921 ft | 472 kts | 312° |
| 2026-05-05 15:07 | 54.50554 | 18.95614 | 35921 ft | 470 kts | 312° |
| 2026-05-05 15:08 | 54.55382 | 18.88007 | 35917 ft | 470 kts | 312° |
| 2026-05-05 15:08 | 54.60197 | 18.80395 | 35920 ft | 470 kts | 312° |
| 2026-05-05 15:09 | 54.65007 | 18.72765 | 35922 ft | 469 kts | 312° |
| 2026-05-05 15:09 | 54.69812 | 18.65118 | 35940 ft | 469 kts | 311° |
| 2026-05-05 15:10 | 54.74572 | 18.57519 | 35919 ft | 468 kts | 311° |
| 2026-05-05 15:10 | 54.79348 | 18.49865 | 35919 ft | 467 kts | 311° |
| 2026-05-05 15:11 | 54.84123 | 18.42187 | 35920 ft | 467 kts | 311° |
| 2026-05-05 15:11 | 54.88887 | 18.34503 | 35917 ft | 467 kts | 311° |
| 2026-05-05 15:12 | 54.93647 | 18.26800 | 35925 ft | 467 kts | 311° |
| 2026-05-05 15:12 | 54.98477 | 18.19212 | 35919 ft | 472 kts | 316° |
| 2026-05-05 15:13 | 55.03973 | 18.12796 | 35919 ft | 477 kts | 322° |
| 2026-05-05 15:13 | 55.09623 | 18.06722 | 35919 ft | 478 kts | 323° |
| 2026-05-05 15:14 | 55.15270 | 18.00727 | 35916 ft | 478 kts | 323° |
| 2026-05-05 15:14 | 55.20945 | 17.94662 | 35917 ft | 477 kts | 322° |
| 2026-05-05 15:15 | 55.26611 | 17.88561 | 35938 ft | 477 kts | 323° |
| 2026-05-05 15:15 | 55.32272 | 17.82433 | 35917 ft | 479 kts | 323° |
| 2026-05-05 15:16 | 55.37947 | 17.76272 | 35916 ft | 479 kts | 323° |
| 2026-05-05 15:16 | 55.43612 | 17.70104 | 35914 ft | 479 kts | 323° |
| 2026-05-05 15:17 | 55.49248 | 17.63946 | 35911 ft | 478 kts | 323° |
| 2026-05-05 15:17 | 55.54898 | 17.57750 | 35907 ft | 478 kts | 322° |
| 2026-05-05 15:18 | 55.60553 | 17.51527 | 35908 ft | 477 kts | 323° |
| 2026-05-05 15:18 | 55.66185 | 17.45311 | 35904 ft | 476 kts | 323° |
| 2026-05-05 15:19 | 55.71802 | 17.39087 | 35901 ft | 476 kts | 323° |
| 2026-05-05 15:19 | 55.77425 | 17.32834 | 35903 ft | 476 kts | 323° |
| 2026-05-05 15:20 | 55.82999 | 17.26616 | 35903 ft | 476 kts | 323° |
| 2026-05-05 15:20 | 55.88605 | 17.20341 | 35903 ft | 476 kts | 322° |
| 2026-05-05 15:21 | 55.94207 | 17.14047 | 35897 ft | 475 kts | 323° |
| 2026-05-05 15:21 | 55.99792 | 17.07753 | 35891 ft | 474 kts | 323° |
| 2026-05-05 15:22 | 56.05352 | 17.01464 | 35894 ft | 474 kts | 323° |
| 2026-05-05 15:22 | 56.10929 | 16.95133 | 35888 ft | 474 kts | 323° |
| 2026-05-05 15:23 | 56.16497 | 16.88791 | 35884 ft | 474 kts | 322° |
| 2026-05-05 15:23 | 56.22067 | 16.82425 | 35885 ft | 474 kts | 322° |
| 2026-05-05 15:24 | 56.27633 | 16.76041 | 35882 ft | 474 kts | 322° |
| 2026-05-05 15:24 | 56.33192 | 16.69643 | 35874 ft | 474 kts | 322° |
| 2026-05-05 15:25 | 56.38744 | 16.63230 | 35871 ft | 474 kts | 322° |
| 2026-05-05 15:25 | 56.44256 | 16.56842 | 35868 ft | 474 kts | 322° |
| 2026-05-05 15:26 | 56.49809 | 16.50383 | 35864 ft | 474 kts | 322° |
| 2026-05-05 15:26 | 56.55353 | 16.43912 | 35856 ft | 474 kts | 322° |
| 2026-05-05 15:27 | 56.60891 | 16.37426 | 35856 ft | 473 kts | 322° |
| 2026-05-05 15:27 | 56.66412 | 16.30936 | 35857 ft | 473 kts | 322° |
| 2026-05-05 15:28 | 56.72055 | 16.24709 | 35857 ft | 475 kts | 326° |
| 2026-05-05 15:28 | 56.77888 | 16.18988 | 35857 ft | 476 kts | 327° |
| 2026-05-05 15:29 | 56.83748 | 16.13304 | 35858 ft | 476 kts | 326° |
| 2026-05-05 15:29 | 56.89576 | 16.07551 | 35884 ft | 476 kts | 326° |
| 2026-05-05 15:30 | 56.95383 | 16.01747 | 35870 ft | 475 kts | 325° |
| 2026-05-05 15:30 | 57.01156 | 15.95945 | 35866 ft | 472 kts | 325° |
| 2026-05-05 15:31 | 57.06921 | 15.90130 | 35868 ft | 472 kts | 325° |
| 2026-05-05 15:31 | 57.12643 | 15.84332 | 35869 ft | 472 kts | 323° |
| 2026-05-05 15:32 | 57.18335 | 15.78318 | 35872 ft | 471 kts | 322° |
| 2026-05-05 15:32 | 57.24039 | 15.72319 | 35881 ft | 472 kts | 322° |
| 2026-05-05 15:33 | 57.29772 | 15.66405 | 35868 ft | 471 kts | 323° |
| 2026-05-05 15:33 | 57.35505 | 15.60524 | 35872 ft | 471 kts | 323° |
| 2026-05-05 15:34 | 57.41239 | 15.54627 | 35877 ft | 471 kts | 323° |
| 2026-05-05 15:34 | 57.46966 | 15.48711 | 35877 ft | 471 kts | 322° |
| 2026-05-05 15:35 | 57.52655 | 15.42809 | 35878 ft | 471 kts | 322° |
| 2026-05-05 15:35 | 57.58376 | 15.36857 | 35871 ft | 471 kts | 322° |
| 2026-05-05 15:36 | 57.64083 | 15.30894 | 35888 ft | 470 kts | 322° |
| 2026-05-05 15:36 | 57.69800 | 15.24897 | 35889 ft | 470 kts | 322° |
| 2026-05-05 15:37 | 57.75513 | 15.18884 | 35883 ft | 470 kts | 322° |
| 2026-05-05 15:37 | 57.81179 | 15.12897 | 35882 ft | 470 kts | 322° |
| 2026-05-05 15:38 | 57.86881 | 15.06852 | 35885 ft | 470 kts | 322° |
| 2026-05-05 15:38 | 57.92581 | 15.00787 | 35882 ft | 470 kts | 322° |
| 2026-05-05 15:39 | 57.98270 | 14.94708 | 35884 ft | 470 kts | 322° |
| 2026-05-05 15:39 | 58.03958 | 14.88610 | 35885 ft | 470 kts | 322° |
| 2026-05-05 15:40 | 58.09631 | 14.82507 | 35891 ft | 469 kts | 322° |
| 2026-05-05 15:40 | 58.15320 | 14.76363 | 35889 ft | 469 kts | 322° |
| 2026-05-05 15:41 | 58.20988 | 14.70220 | 35885 ft | 469 kts | 321° |
| 2026-05-05 15:41 | 58.26649 | 14.64061 | 35904 ft | 469 kts | 321° |
| 2026-05-05 15:42 | 58.32313 | 14.57875 | 35887 ft | 469 kts | 321° |
| 2026-05-05 15:42 | 58.37962 | 14.51683 | 35895 ft | 469 kts | 321° |
| 2026-05-05 15:43 | 58.43616 | 14.45462 | 35878 ft | 469 kts | 321° |
| 2026-05-05 15:43 | 58.49225 | 14.39268 | 35885 ft | 468 kts | 321° |
| 2026-05-05 15:44 | 58.54866 | 14.33034 | 35887 ft | 468 kts | 321° |
| 2026-05-05 15:44 | 58.60575 | 14.26951 | 35888 ft | 469 kts | 322° |
| 2026-05-05 15:45 | 58.66294 | 14.20949 | 35890 ft | 469 kts | 322° |
| 2026-05-05 15:45 | 58.71050 | 14.15934 | 35894 ft | 469 kts | 322° |
| 2026-05-05 15:46 | 58.76770 | 14.09859 | 35900 ft | 469 kts | 322° |
| 2026-05-05 15:46 | 58.82480 | 14.03760 | 35901 ft | 469 kts | 322° |
| 2026-05-05 15:47 | 58.88171 | 13.97659 | 35905 ft | 467 kts | 322° |
| 2026-05-05 15:47 | 58.93853 | 13.91542 | 35901 ft | 467 kts | 321° |
| 2026-05-05 15:48 | 58.99495 | 13.85445 | 35897 ft | 467 kts | 321° |
| 2026-05-05 15:48 | 59.05163 | 13.79296 | 35898 ft | 467 kts | 321° |
| 2026-05-05 15:49 | 59.10839 | 13.73117 | 35894 ft | 467 kts | 321° |
| 2026-05-05 15:49 | 59.16504 | 13.66927 | 35890 ft | 467 kts | 321° |
| 2026-05-05 15:50 | 59.22168 | 13.60711 | 35886 ft | 468 kts | 321° |
| 2026-05-05 15:50 | 59.27849 | 13.54457 | 35885 ft | 467 kts | 321° |
| 2026-05-05 15:51 | 59.33503 | 13.48208 | 35882 ft | 466 kts | 321° |
| 2026-05-05 15:51 | 59.39124 | 13.41968 | 35884 ft | 466 kts | 321° |
| 2026-05-05 15:52 | 59.44776 | 13.35671 | 35885 ft | 466 kts | 321° |
| 2026-05-05 15:52 | 59.50418 | 13.29359 | 35922 ft | 466 kts | 321° |
| 2026-05-05 15:53 | 59.56058 | 13.23028 | 35889 ft | 466 kts | 321° |
| 2026-05-05 15:53 | 59.61695 | 13.16675 | 35873 ft | 466 kts | 321° |
| 2026-05-05 15:54 | 59.67342 | 13.10285 | 35872 ft | 467 kts | 321° |
| 2026-05-05 15:54 | 59.72954 | 13.03907 | 35871 ft | 468 kts | 321° |
| 2026-05-05 15:55 | 59.78604 | 12.97465 | 35869 ft | 468 kts | 321° |
| 2026-05-05 15:55 | 59.84251 | 12.91000 | 35896 ft | 468 kts | 321° |
| 2026-05-05 15:56 | 59.89895 | 12.84511 | 35861 ft | 469 kts | 321° |
| 2026-05-05 15:56 | 59.95538 | 12.77999 | 35862 ft | 469 kts | 321° |
| 2026-05-05 15:57 | 60.01177 | 12.71466 | 35861 ft | 469 kts | 321° |
| 2026-05-05 15:57 | 60.06814 | 12.64908 | 35858 ft | 468 kts | 321° |
| 2026-05-05 15:58 | 60.12452 | 12.58325 | 35856 ft | 468 kts | 321° |
| 2026-05-05 15:58 | 60.18083 | 12.51722 | 35873 ft | 469 kts | 321° |
| 2026-05-05 15:59 | 60.23726 | 12.45073 | 35861 ft | 471 kts | 321° |
| 2026-05-05 15:59 | 60.29380 | 12.38389 | 35854 ft | 470 kts | 321° |
| 2026-05-05 16:00 | 60.34986 | 12.31738 | 35857 ft | 470 kts | 321° |
| 2026-05-05 16:00 | 60.40630 | 12.25014 | 35857 ft | 470 kts | 321° |
| 2026-05-05 16:01 | 60.46264 | 12.18272 | 35860 ft | 470 kts | 321° |
| 2026-05-05 16:01 | 60.51898 | 12.11500 | 35860 ft | 472 kts | 321° |
| 2026-05-05 16:02 | 60.57559 | 12.04668 | 35856 ft | 473 kts | 321° |
| 2026-05-05 16:02 | 60.63224 | 11.97810 | 35859 ft | 473 kts | 321° |
| 2026-05-05 16:03 | 60.68876 | 11.90937 | 35857 ft | 473 kts | 321° |
| 2026-05-05 16:03 | 60.74536 | 11.84023 | 35856 ft | 473 kts | 321° |
| 2026-05-05 16:04 | 60.80154 | 11.77132 | 35853 ft | 473 kts | 321° |
| 2026-05-05 16:04 | 60.85761 | 11.70057 | 35876 ft | 473 kts | 320° |
| 2026-05-05 16:05 | 60.91300 | 11.62713 | 35856 ft | 474 kts | 320° |
| 2026-05-05 16:05 | 60.96826 | 11.55318 | 35853 ft | 474 kts | 320° |
| 2026-05-05 16:06 | 61.02322 | 11.47965 | 35854 ft | 474 kts | 320° |
| 2026-05-05 16:06 | 61.07856 | 11.40552 | 35849 ft | 474 kts | 320° |
| 2026-05-05 16:07 | 61.13383 | 11.33120 | 35849 ft | 474 kts | 320° |
| 2026-05-05 16:07 | 61.18901 | 11.25671 | 35849 ft | 474 kts | 320° |
| 2026-05-05 16:08 | 61.24419 | 11.18185 | 35856 ft | 473 kts | 320° |
| 2026-05-05 16:08 | 61.29926 | 11.10737 | 35850 ft | 471 kts | 320° |
| 2026-05-05 16:09 | 61.35400 | 11.03238 | 35846 ft | 471 kts | 320° |
| 2026-05-05 16:09 | 61.40866 | 10.95704 | 35849 ft | 471 kts | 320° |
| 2026-05-05 16:10 | 61.46333 | 10.88151 | 35847 ft | 471 kts | 320° |
| 2026-05-05 16:10 | 61.51796 | 10.80581 | 35856 ft | 472 kts | 320° |
| 2026-05-05 16:11 | 61.57250 | 10.72990 | 35850 ft | 474 kts | 320° |
| 2026-05-05 16:12 | 61.68225 | 10.57629 | 35853 ft | 473 kts | 320° |
| 2026-05-05 16:13 | 61.81884 | 10.38314 | 35854 ft | 472 kts | 320° |
| 2026-05-05 16:13 | 61.87354 | 10.30517 | 35863 ft | 474 kts | 320° |
| 2026-05-05 16:14 | 61.98289 | 10.14831 | 35865 ft | 476 kts | 320° |
| 2026-05-05 16:15 | 62.09256 | 9.98966 | 35874 ft | 476 kts | 320° |
| 2026-05-05 16:16 | 62.20191 | 9.83004 | 35888 ft | 476 kts | 320° |
| 2026-05-05 16:17 | 62.28405 | 9.70918 | 35887 ft | 477 kts | 320° |
| 2026-05-05 16:18 | 62.36587 | 9.58800 | 35889 ft | 477 kts | 320° |
| 2026-05-05 16:19 | 62.44791 | 9.46564 | 35890 ft | 478 kts | 320° |
| 2026-05-05 16:19 | 62.52985 | 9.34261 | 35896 ft | 478 kts | 320° |
| 2026-05-05 16:20 | 62.63924 | 9.17706 | 35897 ft | 479 kts | 320° |
| 2026-05-05 16:22 | 62.77537 | 8.96891 | 35895 ft | 479 kts | 320° |
| 2026-05-05 16:23 | 62.88437 | 8.80042 | 35913 ft | 480 kts | 320° |
| 2026-05-05 16:23 | 62.96616 | 8.67305 | 35909 ft | 481 kts | 320° |
| 2026-05-05 16:24 | 63.02085 | 8.58804 | 35911 ft | 481 kts | 320° |
| 2026-05-05 16:25 | 63.10348 | 8.46196 | 35902 ft | 481 kts | 320° |
| 2026-05-05 16:25 | 63.18566 | 8.33586 | 35913 ft | 481 kts | 320° |
| 2026-05-05 16:26 | 63.29565 | 8.16524 | 35910 ft | 482 kts | 320° |
| 2026-05-05 16:27 | 63.35059 | 8.07939 | 35907 ft | 482 kts | 320° |
| 2026-05-05 16:27 | 63.40548 | 7.99322 | 35890 ft | 482 kts | 320° |
| 2026-05-05 16:28 | 63.46032 | 7.90671 | 35889 ft | 482 kts | 320° |
| 2026-05-05 16:28 | 63.51511 | 7.81987 | 35901 ft | 482 kts | 320° |
| 2026-05-05 16:29 | 63.57000 | 7.73243 | 35893 ft | 484 kts | 320° |
| 2026-05-05 16:29 | 63.62453 | 7.64516 | 35886 ft | 485 kts | 320° |
| 2026-05-05 16:30 | 63.67951 | 7.55675 | 35886 ft | 485 kts | 320° |
| 2026-05-05 16:30 | 63.73437 | 7.46813 | 35887 ft | 485 kts | 320° |
| 2026-05-05 16:31 | 63.78926 | 7.37900 | 35884 ft | 485 kts | 320° |
| 2026-05-05 16:31 | 63.84400 | 7.28967 | 35883 ft | 485 kts | 320° |
| 2026-05-05 16:32 | 63.88952 | 7.21505 | 35891 ft | 485 kts | 320° |
| 2026-05-05 16:32 | 63.95319 | 7.11017 | 35877 ft | 487 kts | 320° |
| 2026-05-05 16:33 | 63.99912 | 7.03415 | 35879 ft | 487 kts | 320° |
| 2026-05-05 16:33 | 64.05389 | 6.94308 | 35877 ft | 487 kts | 320° |
| 2026-05-05 16:34 | 64.10826 | 6.85223 | 35880 ft | 487 kts | 320° |
| 2026-05-05 16:34 | 64.16288 | 6.76049 | 35878 ft | 487 kts | 320° |
| 2026-05-05 16:35 | 64.21752 | 6.66826 | 35882 ft | 487 kts | 320° |
| 2026-05-05 16:35 | 64.27214 | 6.57561 | 35875 ft | 488 kts | 320° |
| 2026-05-05 16:36 | 64.32669 | 6.48260 | 35875 ft | 488 kts | 320° |
| 2026-05-05 16:36 | 64.38090 | 6.38971 | 35870 ft | 488 kts | 320° |
| 2026-05-05 16:37 | 64.43535 | 6.29595 | 35870 ft | 487 kts | 320° |
| 2026-05-05 16:37 | 64.48964 | 6.20197 | 35864 ft | 487 kts | 320° |
| 2026-05-05 16:38 | 64.54391 | 6.10756 | 35870 ft | 487 kts | 320° |
| 2026-05-05 16:38 | 64.59814 | 6.01272 | 35870 ft | 487 kts | 319° |
| 2026-05-05 16:39 | 64.65230 | 5.91754 | 35862 ft | 487 kts | 319° |
| 2026-05-05 16:39 | 64.70634 | 5.82207 | 35867 ft | 487 kts | 319° |
| 2026-05-05 16:40 | 64.75987 | 5.72462 | 35864 ft | 487 kts | 318° |
| 2026-05-05 16:40 | 64.81265 | 5.62496 | 35864 ft | 487 kts | 317° |
| 2026-05-05 16:41 | 64.86495 | 5.52547 | 35864 ft | 487 kts | 317° |
| 2026-05-05 16:41 | 64.91763 | 5.42513 | 35865 ft | 487 kts | 317° |
| 2026-05-05 16:42 | 64.97034 | 5.32443 | 35865 ft | 488 kts | 317° |
| 2026-05-05 16:42 | 65.02303 | 5.22331 | 35859 ft | 488 kts | 317° |
| 2026-05-05 16:43 | 65.07564 | 5.12179 | 35859 ft | 488 kts | 317° |
| 2026-05-05 16:43 | 65.12820 | 5.01983 | 35859 ft | 488 kts | 317° |
| 2026-05-05 16:44 | 65.18066 | 4.91750 | 35855 ft | 488 kts | 317° |
| 2026-05-05 16:44 | 65.23311 | 4.81464 | 35865 ft | 488 kts | 317° |
| 2026-05-05 16:45 | 65.28556 | 4.71125 | 35856 ft | 489 kts | 317° |
| 2026-05-05 16:45 | 65.33753 | 4.60826 | 35856 ft | 489 kts | 317° |
| 2026-05-05 16:46 | 65.38988 | 4.50396 | 35856 ft | 489 kts | 317° |
| 2026-05-05 16:46 | 65.44210 | 4.39937 | 35851 ft | 489 kts | 317° |
| 2026-05-05 16:47 | 65.49427 | 4.29431 | 35856 ft | 489 kts | 317° |
| 2026-05-05 16:47 | 65.54646 | 4.18864 | 35851 ft | 489 kts | 317° |
| 2026-05-05 16:48 | 65.59848 | 4.08273 | 35852 ft | 489 kts | 317° |
| 2026-05-05 16:48 | 65.65057 | 3.97611 | 35857 ft | 490 kts | 317° |
| 2026-05-05 16:49 | 65.70250 | 3.86924 | 35851 ft | 489 kts | 317° |
| 2026-05-05 16:49 | 65.75408 | 3.76252 | 35851 ft | 490 kts | 317° |
| 2026-05-05 16:50 | 65.80593 | 3.65464 | 35854 ft | 490 kts | 317° |
| 2026-05-05 16:50 | 65.85777 | 3.54619 | 35848 ft | 490 kts | 316° |
| 2026-05-05 16:51 | 65.90952 | 3.43731 | 35851 ft | 489 kts | 316° |
| 2026-05-05 16:51 | 65.96068 | 3.32910 | 35845 ft | 489 kts | 316° |
| 2026-05-05 16:52 | 66.01221 | 3.21950 | 35844 ft | 489 kts | 316° |
| 2026-05-05 16:52 | 66.06359 | 3.10959 | 35845 ft | 490 kts | 316° |
| 2026-05-05 16:53 | 66.11500 | 2.99903 | 35845 ft | 489 kts | 316° |
| 2026-05-05 16:53 | 66.16628 | 2.88812 | 35845 ft | 489 kts | 316° |
| 2026-05-05 16:54 | 66.21737 | 2.77702 | 35844 ft | 489 kts | 316° |
| 2026-05-05 16:54 | 66.26854 | 2.66526 | 35843 ft | 491 kts | 316° |
| 2026-05-05 16:55 | 66.31948 | 2.55347 | 35844 ft | 491 kts | 316° |
| 2026-05-05 16:55 | 66.37054 | 2.44014 | 35842 ft | 492 kts | 316° |
| 2026-05-05 16:56 | 66.42152 | 2.32662 | 35843 ft | 492 kts | 316° |
| 2026-05-05 16:56 | 66.47254 | 2.21251 | 35843 ft | 492 kts | 316° |
| 2026-05-05 16:57 | 66.52341 | 2.09807 | 35842 ft | 492 kts | 316° |
| 2026-05-05 16:57 | 66.57422 | 1.98309 | 35845 ft | 492 kts | 316° |
| 2026-05-05 16:58 | 66.62495 | 1.86761 | 35842 ft | 491 kts | 316° |
| 2026-05-05 16:58 | 66.67555 | 1.75178 | 35842 ft | 491 kts | 316° |
| 2026-05-05 16:59 | 66.72605 | 1.63548 | 35848 ft | 491 kts | 316° |
| 2026-05-05 16:59 | 66.77617 | 1.51941 | 35848 ft | 491 kts | 315° |
| 2026-05-05 17:00 | 66.82645 | 1.40229 | 35854 ft | 491 kts | 315° |
| 2026-05-05 17:00 | 66.87673 | 1.28447 | 35853 ft | 491 kts | 315° |
| 2026-05-05 17:01 | 66.92681 | 1.16642 | 35854 ft | 490 kts | 315° |
| 2026-05-05 17:01 | 66.97676 | 1.04802 | 35856 ft | 490 kts | 315° |
| 2026-05-05 17:02 | 67.02595 | 0.92706 | 35856 ft | 490 kts | 313° |
| 2026-05-05 17:02 | 67.07351 | 0.80179 | 35858 ft | 491 kts | 312° |
| 2026-05-05 17:03 | 67.12083 | 0.67535 | 35860 ft | 491 kts | 312° |
| 2026-05-05 17:03 | 67.16781 | 0.54949 | 35862 ft | 490 kts | 312° |
| 2026-05-05 17:04 | 67.21506 | 0.42276 | 35861 ft | 490 kts | 312° |
| 2026-05-05 17:04 | 67.26227 | 0.29572 | 35867 ft | 489 kts | 312° |
| 2026-05-05 17:05 | 67.30932 | 0.16828 | 35871 ft | 491 kts | 312° |
| 2026-05-05 17:05 | 67.35641 | 0.03994 | 35871 ft | 490 kts | 312° |
| 2026-05-05 17:06 | 67.40333 | -0.08880 | 35875 ft | 492 kts | 312° |
| 2026-05-05 17:06 | 67.45031 | -0.21848 | 35883 ft | 491 kts | 312° |
| 2026-05-05 17:07 | 67.49699 | -0.34801 | 35880 ft | 490 kts | 312° |
| 2026-05-05 17:07 | 67.54344 | -0.47776 | 35885 ft | 490 kts | 312° |
| 2026-05-05 17:08 | 67.58991 | -0.60759 | 35882 ft | 487 kts | 312° |
| 2026-05-05 17:08 | 67.63617 | -0.73828 | 35885 ft | 488 kts | 311° |
| 2026-05-05 17:09 | 67.68195 | -0.86927 | 35894 ft | 488 kts | 311° |
| 2026-05-05 17:09 | 67.72795 | -1.00114 | 35894 ft | 490 kts | 311° |
| 2026-05-05 17:10 | 67.77402 | -1.13411 | 35903 ft | 491 kts | 311° |
| 2026-05-05 17:10 | 67.82003 | -1.26784 | 35909 ft | 488 kts | 311° |
| 2026-05-05 17:11 | 67.86575 | -1.40109 | 35909 ft | 490 kts | 311° |
| 2026-05-05 17:11 | 67.91115 | -1.53423 | 35916 ft | 487 kts | 311° |
| 2026-05-05 17:12 | 67.95643 | -1.66783 | 35922 ft | 487 kts | 311° |
| 2026-05-05 17:12 | 68.00185 | -1.80292 | 35923 ft | 490 kts | 310° |
| 2026-05-05 17:13 | 68.04716 | -1.93873 | 35931 ft | 488 kts | 310° |
| 2026-05-05 17:13 | 68.09244 | -2.07493 | 35935 ft | 491 kts | 310° |
| 2026-05-05 17:14 | 68.13736 | -2.21089 | 35934 ft | 490 kts | 310° |
| 2026-05-05 17:14 | 68.18250 | -2.34803 | 35947 ft | 488 kts | 310° |
| 2026-05-05 17:15 | 68.22723 | -2.48595 | 35955 ft | 490 kts | 310° |
| 2026-05-05 17:15 | 68.27191 | -2.62441 | 35952 ft | 489 kts | 310° |
| 2026-05-05 17:16 | 68.31648 | -2.76283 | 35968 ft | 487 kts | 311° |
| 2026-05-05 17:16 | 68.36097 | -2.90168 | 35959 ft | 489 kts | 310° |
| 2026-05-05 17:17 | 68.40554 | -3.04156 | 35964 ft | 488 kts | 310° |
| 2026-05-05 17:17 | 68.44973 | -3.18149 | 35985 ft | 489 kts | 309° |
| 2026-05-05 17:18 | 68.49395 | -3.32321 | 35986 ft | 492 kts | 309° |
| 2026-05-05 17:18 | 68.53807 | -3.46552 | 35984 ft | 491 kts | 310° |
| 2026-05-05 17:19 | 68.58181 | -3.60695 | 35999 ft | 489 kts | 309° |
| 2026-05-05 17:19 | 68.62578 | -3.74988 | 36006 ft | 491 kts | 310° |
| 2026-05-05 17:20 | 68.66950 | -3.89345 | 36000 ft | 489 kts | 309° |
| 2026-05-05 17:20 | 68.70574 | -4.01308 | 36018 ft | 489 kts | 309° |
| 2026-05-05 17:21 | 68.74919 | -4.15746 | 36017 ft | 489 kts | 309° |
| 2026-05-05 17:22 | 68.81424 | -4.37580 | 36032 ft | 489 kts | 309° |
| 2026-05-05 17:22 | 68.85731 | -4.52086 | 36034 ft | 491 kts | 309° |
| 2026-05-05 17:23 | 68.90061 | -4.66769 | 36040 ft | 492 kts | 309° |
| 2026-05-05 17:23 | 68.94385 | -4.81559 | 36052 ft | 492 kts | 309° |
| 2026-05-05 17:24 | 68.98689 | -4.96303 | 36046 ft | 489 kts | 310° |
| 2026-05-05 17:24 | 69.03456 | -5.09733 | 36058 ft | 489 kts | 316° |
| 2026-05-05 17:25 | 69.08378 | -5.22761 | 36073 ft | 487 kts | 316° |
| 2026-05-05 17:25 | 69.13331 | -5.35740 | 36073 ft | 488 kts | 316° |
| 2026-05-05 17:26 | 69.18286 | -5.48856 | 36082 ft | 489 kts | 317° |
| 2026-05-05 17:26 | 69.23219 | -5.62019 | 36079 ft | 489 kts | 316° |
| 2026-05-05 17:27 | 69.28136 | -5.75216 | 36085 ft | 486 kts | 316° |
| 2026-05-05 17:27 | 69.33006 | -5.88391 | 36102 ft | 488 kts | 316° |
| 2026-05-05 17:28 | 69.37899 | -6.01739 | 36297 ft | 487 kts | 316° |
| 2026-05-05 17:28 | 69.40327 | -6.08380 | 36615 ft | 482 kts | 316° |
| 2026-05-05 17:28 | 69.42744 | -6.14969 | 36784 ft | 482 kts | 316° |
| 2026-05-05 17:28 | 69.45145 | -6.21580 | 36934 ft | 480 kts | 316° |
| 2026-05-05 17:29 | 69.47539 | -6.28213 | 37025 ft | 481 kts | 316° |
| 2026-05-05 17:29 | 69.52339 | -6.41579 | 37112 ft | 482 kts | 317° |
| 2026-05-05 17:29 | 69.54741 | -6.48248 | 37247 ft | 482 kts | 315° |
| 2026-05-05 17:30 | 69.57139 | -6.54970 | 37251 ft | 484 kts | 315° |
| 2026-05-05 17:30 | 69.61944 | -6.68488 | 37565 ft | 481 kts | 316° |
| 2026-05-05 17:31 | 69.66687 | -6.81882 | 37748 ft | 480 kts | 316° |
| 2026-05-05 17:31 | 69.69054 | -6.88624 | 37939 ft | 478 kts | 315° |
| 2026-05-05 17:31 | 69.71424 | -6.95380 | 37822 ft | 482 kts | 315° |
| 2026-05-05 17:32 | 69.76175 | -7.09077 | 37910 ft | 483 kts | 315° |
| 2026-05-05 17:32 | 69.80936 | -7.22798 | 37979 ft | 484 kts | 316° |
| 2026-05-05 17:32 | 69.83313 | -7.29659 | 38134 ft | 482 kts | 315° |
| 2026-05-05 17:33 | 69.85679 | -7.36540 | 38158 ft | 482 kts | 315° |
| 2026-05-05 17:33 | 69.90426 | -7.50405 | 38156 ft | 485 kts | 315° |
| 2026-05-05 17:34 | 69.95148 | -7.64465 | 38177 ft | 486 kts | 314° |
| 2026-05-05 17:34 | 69.99900 | -7.78592 | 38176 ft | 488 kts | 314° |
| 2026-05-05 17:35 | 70.04657 | -7.92797 | 38168 ft | 488 kts | 314° |
| 2026-05-05 17:35 | 70.09372 | -8.07003 | 38191 ft | 488 kts | 315° |
| 2026-05-05 17:36 | 70.14091 | -8.21298 | 38187 ft | 486 kts | 314° |
| 2026-05-05 17:36 | 70.18794 | -8.35667 | 38195 ft | 487 kts | 314° |
| 2026-05-05 17:37 | 70.23499 | -8.50179 | 38195 ft | 489 kts | 314° |
| 2026-05-05 17:37 | 70.28161 | -8.64641 | 38213 ft | 488 kts | 314° |
| 2026-05-05 17:38 | 70.32833 | -8.79258 | 38203 ft | 486 kts | 314° |
| 2026-05-05 17:38 | 70.37478 | -8.93835 | 38212 ft | 486 kts | 313° |
| 2026-05-05 17:39 | 70.42139 | -9.08519 | 38225 ft | 487 kts | 313° |
| 2026-05-05 17:39 | 70.46774 | -9.23335 | 38228 ft | 488 kts | 314° |
| 2026-05-05 17:40 | 70.51370 | -9.38102 | 38233 ft | 488 kts | 313° |
| 2026-05-05 17:40 | 70.55986 | -9.53009 | 38232 ft | 486 kts | 314° |
| 2026-05-05 17:41 | 70.60573 | -9.67934 | 38237 ft | 487 kts | 313° |
| 2026-05-05 17:41 | 70.65161 | -9.82961 | 38245 ft | 488 kts | 312° |
| 2026-05-05 17:42 | 70.69753 | -9.98135 | 38241 ft | 489 kts | 313° |
| 2026-05-05 17:42 | 70.74325 | -10.13337 | 38258 ft | 488 kts | 313° |
| 2026-05-05 17:43 | 70.78880 | -10.28616 | 38258 ft | 487 kts | 313° |
| 2026-05-05 17:43 | 70.83394 | -10.43804 | 38267 ft | 487 kts | 313° |
| 2026-05-05 17:44 | 70.87939 | -10.59138 | 38262 ft | 488 kts | 312° |
| 2026-05-05 17:44 | 70.92480 | -10.74615 | 38280 ft | 489 kts | 313° |
| 2026-05-05 17:45 | 70.96990 | -10.90169 | 38284 ft | 488 kts | 312° |
| 2026-05-05 17:45 | 71.01498 | -11.05738 | 38280 ft | 486 kts | 314° |
| 2026-05-05 17:46 | 71.06077 | -11.21030 | 38296 ft | 486 kts | 313° |
| 2026-05-05 17:46 | 71.10674 | -11.36383 | 38296 ft | 487 kts | 313° |
| 2026-05-05 17:47 | 71.15218 | -11.51797 | 38296 ft | 488 kts | 314° |
| 2026-05-05 17:47 | 71.19770 | -11.67385 | 38298 ft | 487 kts | 313° |
| 2026-05-05 17:48 | 71.24288 | -11.83022 | 38292 ft | 485 kts | 314° |
| 2026-05-05 17:48 | 71.28798 | -11.98674 | 38300 ft | 486 kts | 314° |
| 2026-05-05 17:49 | 71.33317 | -12.14429 | 38302 ft | 488 kts | 312° |
| 2026-05-05 17:49 | 71.37840 | -12.30306 | 38307 ft | 489 kts | 313° |
| 2026-05-05 17:50 | 71.42324 | -12.46234 | 38317 ft | 487 kts | 313° |
| 2026-05-05 17:50 | 71.46774 | -12.62226 | 38327 ft | 487 kts | 313° |
| 2026-05-05 17:51 | 71.51200 | -12.78197 | 38328 ft | 487 kts | 313° |
| 2026-05-05 17:51 | 71.55632 | -12.94344 | 38342 ft | 487 kts | 311° |
| 2026-05-05 17:52 | 71.60071 | -13.10593 | 38345 ft | 489 kts | 311° |
| 2026-05-05 17:52 | 71.64470 | -13.26941 | 38346 ft | 487 kts | 311° |
| 2026-05-05 17:53 | 71.68867 | -13.43268 | 38349 ft | 485 kts | 312° |
| 2026-05-05 17:53 | 71.73256 | -13.59598 | 38363 ft | 485 kts | 311° |
| 2026-05-05 17:54 | 71.77619 | -13.76091 | 38365 ft | 486 kts | 310° |
| 2026-05-05 17:54 | 71.81947 | -13.92584 | 38371 ft | 487 kts | 310° |
| 2026-05-05 17:55 | 71.86284 | -14.09288 | 38368 ft | 486 kts | 311° |
| 2026-05-05 17:55 | 71.90608 | -14.26030 | 38401 ft | 486 kts | 311° |
| 2026-05-05 17:56 | 71.94884 | -14.42796 | 38390 ft | 483 kts | 310° |
| 2026-05-05 17:56 | 71.99164 | -14.59597 | 38400 ft | 485 kts | 311° |
| 2026-05-05 17:57 | 72.03454 | -14.76500 | 38400 ft | 487 kts | 310° |
| 2026-05-05 17:57 | 72.07700 | -14.93504 | 38408 ft | 487 kts | 309° |
| 2026-05-05 17:58 | 72.11947 | -15.10608 | 38417 ft | 485 kts | 309° |
| 2026-05-05 17:58 | 72.16173 | -15.27756 | 38418 ft | 484 kts | 309° |
| 2026-05-05 17:59 | 72.20367 | -15.45025 | 38424 ft | 484 kts | 309° |
| 2026-05-05 17:59 | 72.24560 | -15.62350 | 38439 ft | 485 kts | 310° |
| 2026-05-05 18:00 | 72.28752 | -15.79716 | 38430 ft | 486 kts | 309° |
| 2026-05-05 18:00 | 72.32936 | -15.97235 | 38443 ft | 488 kts | 308° |
| 2026-05-05 18:01 | 72.37064 | -16.14694 | 38454 ft | 484 kts | 309° |
| 2026-05-05 18:01 | 72.41186 | -16.32320 | 38452 ft | 483 kts | 309° |
| 2026-05-05 18:02 | 72.45273 | -16.49977 | 38464 ft | 483 kts | 308° |
| 2026-05-05 18:02 | 72.49366 | -16.67734 | 38461 ft | 485 kts | 309° |
| 2026-05-05 18:03 | 72.53422 | -16.85438 | 38479 ft | 485 kts | 308° |
| 2026-05-05 18:03 | 72.57489 | -17.03399 | 38478 ft | 485 kts | 308° |
| 2026-05-05 18:04 | 72.61537 | -17.21470 | 38478 ft | 484 kts | 308° |
| 2026-05-05 18:04 | 72.65555 | -17.39556 | 38479 ft | 484 kts | 308° |
| 2026-05-05 18:05 | 72.69565 | -17.57691 | 38493 ft | 483 kts | 308° |
| 2026-05-05 18:05 | 72.73552 | -17.75878 | 38502 ft | 483 kts | 307° |
| 2026-05-05 18:06 | 72.77530 | -17.94155 | 38507 ft | 485 kts | 307° |
| 2026-05-05 18:06 | 72.81501 | -18.12618 | 38514 ft | 485 kts | 307° |
| 2026-05-05 18:07 | 72.85433 | -18.31060 | 38515 ft | 486 kts | 306° |
| 2026-05-05 18:07 | 72.89369 | -18.49682 | 38519 ft | 485 kts | 306° |
| 2026-05-05 18:08 | 72.93285 | -18.68360 | 38513 ft | 485 kts | 306° |
| 2026-05-05 18:08 | 72.97186 | -18.87133 | 38527 ft | 485 kts | 306° |
| 2026-05-05 18:09 | 73.00997 | -19.06139 | 38529 ft | 485 kts | 303° |
| 2026-05-05 18:09 | 73.03871 | -19.22652 | 38535 ft | 486 kts | 300° |
| 2026-05-05 18:10 | 73.07206 | -19.42861 | 38531 ft | 488 kts | 300° |
| 2026-05-05 18:10 | 73.11091 | -19.66433 | 38537 ft | 488 kts | 300° |
| 2026-05-05 18:11 | 73.14440 | -19.86710 | 38544 ft | 487 kts | 300° |
| 2026-05-05 18:11 | 73.17224 | -20.03657 | 38544 ft | 487 kts | 300° |
| 2026-05-05 18:12 | 73.20552 | -20.24089 | 38546 ft | 487 kts | 300° |
| 2026-05-05 18:12 | 73.23852 | -20.44568 | 38546 ft | 487 kts | 300° |
| 2026-05-05 18:13 | 73.27134 | -20.65148 | 38547 ft | 487 kts | 299° |
| 2026-05-05 18:13 | 73.30400 | -20.85834 | 38535 ft | 487 kts | 299° |
| 2026-05-05 18:14 | 73.33623 | -21.06449 | 38546 ft | 488 kts | 299° |
| 2026-05-05 18:14 | 73.36864 | -21.27401 | 38546 ft | 488 kts | 298° |
| 2026-05-05 18:15 | 73.40043 | -21.48158 | 38546 ft | 488 kts | 298° |
| 2026-05-05 18:15 | 73.43224 | -21.69145 | 38533 ft | 488 kts | 298° |
| 2026-05-05 18:16 | 73.46383 | -21.90202 | 38537 ft | 488 kts | 298° |
| 2026-05-05 18:16 | 73.49525 | -22.11367 | 38526 ft | 488 kts | 298° |
| 2026-05-05 18:17 | 73.52641 | -22.32576 | 38527 ft | 488 kts | 298° |
| 2026-05-05 18:17 | 73.55725 | -22.53793 | 38523 ft | 488 kts | 297° |
| 2026-05-05 18:18 | 73.58801 | -22.75176 | 38523 ft | 489 kts | 297° |
| 2026-05-05 18:18 | 73.61863 | -22.96696 | 38524 ft | 489 kts | 297° |
| 2026-05-05 18:19 | 73.64907 | -23.18324 | 38525 ft | 489 kts | 297° |
| 2026-05-05 18:19 | 73.67925 | -23.39997 | 38525 ft | 489 kts | 297° |
| 2026-05-05 18:20 | 73.70899 | -23.61593 | 38524 ft | 489 kts | 296° |
| 2026-05-05 18:20 | 73.73870 | -23.83398 | 38527 ft | 489 kts | 296° |
| 2026-05-05 18:21 | 73.76822 | -24.05318 | 38533 ft | 489 kts | 296° |
| 2026-05-05 18:21 | 73.79747 | -24.27277 | 38532 ft | 489 kts | 296° |
| 2026-05-05 18:22 | 73.82650 | -24.49313 | 38539 ft | 489 kts | 295° |
| 2026-05-05 18:22 | 73.85532 | -24.71421 | 38544 ft | 488 kts | 295° |
| 2026-05-05 18:23 | 73.88389 | -24.93627 | 38546 ft | 488 kts | 295° |
| 2026-05-05 18:23 | 73.91219 | -25.15869 | 38557 ft | 488 kts | 295° |
| 2026-05-05 18:24 | 73.94008 | -25.38040 | 38569 ft | 488 kts | 295° |
| 2026-05-05 18:24 | 73.96794 | -25.60451 | 38570 ft | 488 kts | 294° |
| 2026-05-05 18:25 | 73.99552 | -25.82888 | 38586 ft | 487 kts | 294° |
| 2026-05-05 18:25 | 74.02274 | -26.05300 | 38617 ft | 487 kts | 294° |
| 2026-05-05 18:26 | 74.04982 | -26.27864 | 38616 ft | 488 kts | 294° |
| 2026-05-05 18:26 | 74.07674 | -26.50567 | 38632 ft | 487 kts | 293° |
| 2026-05-05 18:27 | 74.10333 | -26.73265 | 38641 ft | 487 kts | 293° |
| 2026-05-05 18:27 | 74.12973 | -26.96073 | 38642 ft | 487 kts | 293° |
| 2026-05-05 18:28 | 74.16872 | -27.30296 | 38660 ft | 484 kts | 293° |
| 2026-05-05 18:28 | 74.19415 | -27.52960 | 38670 ft | 483 kts | 293° |
| 2026-05-05 18:29 | 74.21939 | -27.75737 | 38691 ft | 480 kts | 293° |
| 2026-05-05 18:29 | 74.24435 | -27.98539 | 38691 ft | 481 kts | 292° |
| 2026-05-05 18:30 | 74.26913 | -28.21462 | 38689 ft | 482 kts | 292° |
| 2026-05-05 18:30 | 74.29354 | -28.44380 | 38727 ft | 483 kts | 292° |
| 2026-05-05 18:31 | 74.31779 | -28.67340 | 38722 ft | 479 kts | 291° |
| 2026-05-05 18:31 | 74.34182 | -28.90474 | 38595 ft | 484 kts | 292° |
| 2026-05-05 18:32 | 74.35378 | -29.02078 | 38352 ft | 482 kts | 291° |
| 2026-05-05 18:32 | 74.36566 | -29.13694 | 38088 ft | 482 kts | 291° |
| 2026-05-05 18:32 | 74.37751 | -29.25305 | 37835 ft | 479 kts | 292° |
| 2026-05-05 18:32 | 74.38915 | -29.36805 | 37578 ft | 475 kts | 292° |
| 2026-05-05 18:33 | 74.40072 | -29.48286 | 37334 ft | 475 kts | 291° |
| 2026-05-05 18:33 | 74.41226 | -29.59874 | 37090 ft | 479 kts | 290° |
| 2026-05-05 18:33 | 74.42380 | -29.71543 | 36903 ft | 481 kts | 290° |
| 2026-05-05 18:33 | 74.43527 | -29.83264 | 36754 ft | 481 kts | 291° |
| 2026-05-05 18:34 | 74.45791 | -30.06656 | 36749 ft | 479 kts | 291° |
| 2026-05-05 18:34 | 74.48026 | -30.29977 | 36750 ft | 481 kts | 290° |
| 2026-05-05 18:35 | 74.50263 | -30.53601 | 36752 ft | 482 kts | 289° |
| 2026-05-05 18:35 | 74.52475 | -30.77311 | 36767 ft | 483 kts | 289° |
| 2026-05-05 18:36 | 74.54659 | -31.01209 | 36773 ft | 484 kts | 289° |
| 2026-05-05 18:36 | 74.56818 | -31.25142 | 36772 ft | 482 kts | 289° |
| 2026-05-05 18:37 | 74.58961 | -31.49053 | 36776 ft | 483 kts | 289° |
| 2026-05-05 18:37 | 74.61059 | -31.72869 | 36788 ft | 483 kts | 289° |
| 2026-05-05 18:38 | 74.63146 | -31.96895 | 36780 ft | 482 kts | 288° |
| 2026-05-05 18:38 | 74.65207 | -32.21016 | 36786 ft | 483 kts | 288° |
| 2026-05-05 18:39 | 74.67243 | -32.45228 | 36797 ft | 483 kts | 287° |
| 2026-05-05 18:39 | 74.69256 | -32.69531 | 36798 ft | 483 kts | 287° |
| 2026-05-05 18:40 | 74.71240 | -32.93862 | 36798 ft | 483 kts | 287° |
| 2026-05-05 18:40 | 74.73185 | -33.18112 | 36800 ft | 483 kts | 287° |
| 2026-05-05 18:41 | 74.75111 | -33.42506 | 36803 ft | 483 kts | 287° |
| 2026-05-05 18:41 | 74.77018 | -33.67046 | 36798 ft | 483 kts | 286° |
| 2026-05-05 18:42 | 74.78893 | -33.91656 | 36803 ft | 483 kts | 286° |
| 2026-05-05 18:42 | 74.80729 | -34.16118 | 36806 ft | 483 kts | 286° |
| 2026-05-05 18:43 | 74.82556 | -34.40783 | 36806 ft | 483 kts | 285° |
| 2026-05-05 18:43 | 74.84354 | -34.65506 | 36806 ft | 481 kts | 285° |
| 2026-05-05 18:44 | 74.86104 | -34.90023 | 36811 ft | 481 kts | 285° |
| 2026-05-05 18:44 | 74.87838 | -35.14744 | 36811 ft | 481 kts | 285° |
| 2026-05-05 18:45 | 74.89543 | -35.39504 | 36811 ft | 481 kts | 284° |
| 2026-05-05 18:45 | 74.91222 | -35.64318 | 36810 ft | 480 kts | 284° |
| 2026-05-05 18:46 | 74.92877 | -35.89229 | 36816 ft | 480 kts | 284° |
| 2026-05-05 18:46 | 74.94502 | -36.14162 | 36816 ft | 480 kts | 284° |
| 2026-05-05 18:47 | 74.96102 | -36.39170 | 36817 ft | 480 kts | 283° |
| 2026-05-05 18:47 | 74.97663 | -36.64050 | 36796 ft | 480 kts | 283° |
| 2026-05-05 18:48 | 74.99202 | -36.89066 | 36806 ft | 479 kts | 283° |
| 2026-05-05 18:48 | 75.00615 | -37.14191 | 36806 ft | 478 kts | 281° |
| 2026-05-05 18:49 | 75.01802 | -37.39497 | 36803 ft | 478 kts | 280° |
| 2026-05-05 18:49 | 75.02932 | -37.64798 | 36794 ft | 478 kts | 280° |
| 2026-05-05 18:50 | 75.04059 | -37.90211 | 36794 ft | 478 kts | 280° |
| 2026-05-05 18:50 | 75.05169 | -38.15588 | 36782 ft | 478 kts | 279° |
| 2026-05-05 18:51 | 75.06248 | -38.40841 | 36774 ft | 478 kts | 279° |
| 2026-05-05 18:51 | 75.07308 | -38.66352 | 36776 ft | 478 kts | 279° |
| 2026-05-05 18:52 | 75.08335 | -38.91798 | 36764 ft | 477 kts | 279° |
| 2026-05-05 18:52 | 75.09332 | -39.17255 | 36760 ft | 476 kts | 279° |
| 2026-05-05 18:53 | 75.10294 | -39.42559 | 36760 ft | 476 kts | 278° |
| 2026-05-05 18:53 | 75.11235 | -39.68063 | 36753 ft | 476 kts | 278° |
| 2026-05-05 18:54 | 75.12149 | -39.93635 | 36747 ft | 476 kts | 278° |
| 2026-05-05 18:54 | 75.13032 | -40.19159 | 36739 ft | 476 kts | 278° |
| 2026-05-05 18:55 | 75.13888 | -40.44759 | 36740 ft | 477 kts | 277° |
| 2026-05-05 18:55 | 75.14715 | -40.70374 | 36736 ft | 477 kts | 277° |
| 2026-05-05 18:56 | 75.15514 | -40.96039 | 36736 ft | 476 kts | 277° |
| 2026-05-05 18:56 | 75.16281 | -41.21574 | 36724 ft | 473 kts | 277° |
| 2026-05-05 18:57 | 75.17013 | -41.46935 | 36724 ft | 473 kts | 277° |
| 2026-05-05 18:57 | 75.17722 | -41.72476 | 36722 ft | 473 kts | 276° |
| 2026-05-05 18:58 | 75.18402 | -41.98023 | 36715 ft | 473 kts | 276° |
| 2026-05-05 18:58 | 75.19055 | -42.23623 | 36714 ft | 473 kts | 276° |
| 2026-05-05 18:59 | 75.19576 | -42.44928 | 36716 ft | 473 kts | 276° |
| 2026-05-05 18:59 | 75.20272 | -42.74716 | 36711 ft | 473 kts | 276° |
| 2026-05-05 19:00 | 75.20750 | -42.96186 | 36713 ft | 473 kts | 275° |
| 2026-05-05 19:00 | 75.21288 | -43.21591 | 36712 ft | 469 kts | 275° |
| 2026-05-05 19:01 | 75.21800 | -43.47063 | 36707 ft | 468 kts | 275° |
| 2026-05-05 19:01 | 75.22283 | -43.72505 | 36707 ft | 468 kts | 275° |
| 2026-05-05 19:02 | 75.22738 | -43.97955 | 36707 ft | 468 kts | 275° |
| 2026-05-05 19:02 | 75.23165 | -44.23424 | 36704 ft | 469 kts | 274° |
| 2026-05-05 19:03 | 75.23565 | -44.48934 | 36704 ft | 469 kts | 274° |
| 2026-05-05 19:03 | 75.23936 | -44.74422 | 36704 ft | 469 kts | 274° |
| 2026-05-05 19:04 | 75.24279 | -44.99868 | 36701 ft | 468 kts | 274° |
| 2026-05-05 19:04 | 75.24594 | -45.25344 | 36700 ft | 466 kts | 273° |
| 2026-05-05 19:05 | 75.24878 | -45.50710 | 36704 ft | 464 kts | 273° |
| 2026-05-05 19:05 | 75.25136 | -45.76029 | 36701 ft | 464 kts | 273° |
| 2026-05-05 19:06 | 75.25366 | -46.01351 | 36696 ft | 464 kts | 272° |
| 2026-05-05 19:06 | 75.25567 | -46.26530 | 36696 ft | 464 kts | 272° |
| 2026-05-05 19:07 | 75.25742 | -46.51907 | 36696 ft | 464 kts | 272° |
| 2026-05-05 19:07 | 75.25890 | -46.77253 | 36696 ft | 464 kts | 272° |
| 2026-05-05 19:08 | 75.26010 | -47.02623 | 36693 ft | 464 kts | 271° |
| 2026-05-05 19:08 | 75.26101 | -47.27795 | 36691 ft | 464 kts | 271° |
| 2026-05-05 19:09 | 75.26165 | -47.53068 | 36690 ft | 461 kts | 271° |
| 2026-05-05 19:09 | 75.26202 | -47.78215 | 36687 ft | 460 kts | 271° |
| 2026-05-05 19:10 | 75.26212 | -48.03362 | 36683 ft | 461 kts | 271° |
| 2026-05-05 19:10 | 75.26195 | -48.28544 | 36684 ft | 461 kts | 270° |
| 2026-05-05 19:11 | 75.26151 | -48.53701 | 36680 ft | 461 kts | 270° |
| 2026-05-05 19:11 | 75.26079 | -48.78908 | 36669 ft | 461 kts | 270° |
| 2026-05-05 19:12 | 75.25981 | -49.03881 | 36664 ft | 460 kts | 269° |
| 2026-05-05 19:12 | 75.25855 | -49.29035 | 36665 ft | 460 kts | 269° |
| 2026-05-05 19:13 | 75.25701 | -49.54209 | 36633 ft | 460 kts | 269° |
| 2026-05-05 19:13 | 75.25522 | -49.79274 | 36641 ft | 458 kts | 269° |
| 2026-05-05 19:14 | 75.25316 | -50.04234 | 36638 ft | 457 kts | 268° |
| 2026-05-05 19:14 | 75.25083 | -50.29223 | 36642 ft | 458 kts | 268° |
| 2026-05-05 19:15 | 75.24824 | -50.54168 | 36629 ft | 458 kts | 268° |
| 2026-05-05 19:15 | 75.24539 | -50.79003 | 36635 ft | 458 kts | 268° |
| 2026-05-05 19:16 | 75.24226 | -51.03944 | 36628 ft | 458 kts | 267° |
| 2026-05-05 19:16 | 75.23886 | -51.28892 | 36610 ft | 458 kts | 267° |
| 2026-05-05 19:17 | 75.23520 | -51.53817 | 36604 ft | 458 kts | 267° |
| 2026-05-05 19:17 | 75.23127 | -51.78702 | 36599 ft | 458 kts | 266° |
| 2026-05-05 19:18 | 75.22706 | -52.03634 | 36593 ft | 458 kts | 266° |
| 2026-05-05 19:18 | 75.22263 | -52.28354 | 36565 ft | 458 kts | 266° |
| 2026-05-05 19:19 | 75.21790 | -52.53250 | 36577 ft | 458 kts | 266° |
| 2026-05-05 19:19 | 75.21289 | -52.78146 | 36572 ft | 458 kts | 265° |
| 2026-05-05 19:20 | 75.20763 | -53.03012 | 36578 ft | 458 kts | 265° |
| 2026-05-05 19:20 | 75.20209 | -53.27847 | 36576 ft | 458 kts | 265° |
| 2026-05-05 19:21 | 75.19629 | -53.52691 | 36578 ft | 458 kts | 265° |
| 2026-05-05 19:21 | 75.19026 | -53.77330 | 36582 ft | 458 kts | 264° |
| 2026-05-05 19:22 | 75.18394 | -54.02099 | 36585 ft | 456 kts | 264° |
| 2026-05-05 19:22 | 75.17739 | -54.26701 | 36579 ft | 455 kts | 264° |
| 2026-05-05 19:23 | 75.17056 | -54.51343 | 36575 ft | 455 kts | 264° |
| 2026-05-05 19:23 | 75.16349 | -54.75910 | 36553 ft | 456 kts | 263° |
| 2026-05-05 19:24 | 75.15615 | -55.00479 | 36536 ft | 456 kts | 263° |
| 2026-05-05 19:24 | 75.14859 | -55.24891 | 36541 ft | 456 kts | 263° |
| 2026-05-05 19:25 | 75.14072 | -55.49439 | 36541 ft | 456 kts | 262° |
| 2026-05-05 19:25 | 75.13278 | -55.73959 | 36513 ft | 456 kts | 263° |
| 2026-05-05 19:26 | 75.12463 | -55.98455 | 36467 ft | 456 kts | 262° |
| 2026-05-05 19:26 | 75.11623 | -56.22895 | 36486 ft | 454 kts | 263° |
| 2026-05-05 19:27 | 75.10766 | -56.47196 | 36463 ft | 453 kts | 262° |
| 2026-05-05 19:27 | 75.09852 | -56.71432 | 36450 ft | 454 kts | 261° |
| 2026-05-05 19:28 | 75.08910 | -56.95597 | 36452 ft | 455 kts | 261° |
| 2026-05-05 19:28 | 75.07942 | -57.19858 | 36448 ft | 455 kts | 261° |
| 2026-05-05 19:29 | 75.06964 | -57.44127 | 36426 ft | 455 kts | 262° |
| 2026-05-05 19:29 | 75.05991 | -57.68341 | 36427 ft | 455 kts | 262° |
| 2026-05-05 19:30 | 75.04971 | -57.92524 | 36429 ft | 455 kts | 261° |
| 2026-05-05 19:30 | 75.03907 | -58.16685 | 36425 ft | 454 kts | 261° |
| 2026-05-05 19:31 | 75.02816 | -58.40728 | 36430 ft | 453 kts | 260° |
| 2026-05-05 19:31 | 75.01703 | -58.64705 | 36430 ft | 453 kts | 260° |
| 2026-05-05 19:32 | 75.00577 | -58.88402 | 36433 ft | 453 kts | 260° |
| 2026-05-05 19:32 | 74.99332 | -59.12230 | 36433 ft | 453 kts | 258° |
| 2026-05-05 19:33 | 74.97869 | -59.35912 | 36432 ft | 453 kts | 257° |
| 2026-05-05 19:33 | 74.96356 | -59.59461 | 36433 ft | 453 kts | 257° |
| 2026-05-05 19:34 | 74.94831 | -59.83079 | 36435 ft | 453 kts | 257° |
| 2026-05-05 19:35 | 74.92526 | -60.18343 | 36430 ft | 453 kts | 256° |
| 2026-05-05 19:35 | 74.90965 | -60.41756 | 36441 ft | 452 kts | 256° |
| 2026-05-05 19:36 | 74.89387 | -60.65002 | 36442 ft | 453 kts | 255° |
| 2026-05-05 19:36 | 74.87775 | -60.88343 | 36441 ft | 453 kts | 255° |
| 2026-05-05 19:37 | 74.86137 | -61.11649 | 36438 ft | 453 kts | 255° |
| 2026-05-05 19:37 | 74.84475 | -61.34922 | 36444 ft | 453 kts | 255° |
| 2026-05-05 19:38 | 74.82791 | -61.58113 | 36443 ft | 453 kts | 255° |
| 2026-05-05 19:38 | 74.81081 | -61.81296 | 36444 ft | 453 kts | 255° |
| 2026-05-05 19:39 | 74.79349 | -62.04399 | 36429 ft | 453 kts | 254° |
| 2026-05-05 19:39 | 74.77595 | -62.27418 | 36478 ft | 452 kts | 253° |
| 2026-05-05 19:40 | 74.75819 | -62.50383 | 36452 ft | 453 kts | 253° |
| 2026-05-05 19:40 | 74.74017 | -62.73329 | 36452 ft | 454 kts | 253° |
| 2026-05-05 19:41 | 74.72200 | -62.96115 | 36456 ft | 454 kts | 253° |
| 2026-05-05 19:41 | 74.70352 | -63.18946 | 36457 ft | 454 kts | 252° |
| 2026-05-05 19:42 | 74.68477 | -63.41773 | 36456 ft | 454 kts | 252° |
| 2026-05-05 19:42 | 74.66576 | -63.64572 | 36460 ft | 454 kts | 252° |
| 2026-05-05 19:43 | 74.64655 | -63.87280 | 36460 ft | 454 kts | 252° |
| 2026-05-05 19:43 | 74.62727 | -64.09753 | 36461 ft | 453 kts | 252° |
| 2026-05-05 19:44 | 74.60762 | -64.32329 | 36468 ft | 454 kts | 251° |
| 2026-05-05 19:44 | 74.58769 | -64.54920 | 36468 ft | 455 kts | 251° |
| 2026-05-05 19:45 | 74.56755 | -64.77432 | 36465 ft | 455 kts | 251° |
| 2026-05-05 19:45 | 74.54716 | -64.99908 | 36468 ft | 455 kts | 250° |
| 2026-05-05 19:46 | 74.52656 | -65.22317 | 36464 ft | 455 kts | 250° |
| 2026-05-05 19:46 | 74.50573 | -65.44664 | 36465 ft | 455 kts | 250° |
| 2026-05-05 19:47 | 74.48825 | -65.63190 | 36472 ft | 455 kts | 250° |
| 2026-05-05 19:47 | 74.46701 | -65.85431 | 36465 ft | 454 kts | 250° |
| 2026-05-05 19:48 | 74.44202 | -66.11215 | 36469 ft | 455 kts | 249° |
| 2026-05-05 19:48 | 74.42382 | -66.29771 | 36468 ft | 456 kts | 249° |
| 2026-05-05 19:49 | 74.40188 | -66.51871 | 36471 ft | 456 kts | 249° |
| 2026-05-05 19:49 | 74.37973 | -66.73901 | 36471 ft | 456 kts | 249° |
| 2026-05-05 19:50 | 74.35746 | -66.95778 | 36473 ft | 456 kts | 248° |
| 2026-05-05 19:50 | 74.33484 | -67.17711 | 36476 ft | 455 kts | 248° |
| 2026-05-05 19:51 | 74.31204 | -67.39555 | 36472 ft | 455 kts | 248° |
| 2026-05-05 19:51 | 74.28900 | -67.61350 | 36456 ft | 455 kts | 248° |
| 2026-05-05 19:52 | 74.26573 | -67.83095 | 36482 ft | 455 kts | 247° |
| 2026-05-05 19:52 | 74.24238 | -68.04655 | 36476 ft | 457 kts | 247° |
| 2026-05-05 19:53 | 74.21864 | -68.26326 | 36475 ft | 457 kts | 247° |
| 2026-05-05 19:53 | 74.19469 | -68.47924 | 36478 ft | 457 kts | 246° |
| 2026-05-05 19:54 | 74.17049 | -68.69493 | 36474 ft | 457 kts | 246° |
| 2026-05-05 19:54 | 74.14608 | -68.90987 | 36476 ft | 457 kts | 246° |
| 2026-05-05 19:55 | 74.12147 | -69.12414 | 36476 ft | 457 kts | 246° |
| 2026-05-05 19:55 | 74.09683 | -69.33622 | 36479 ft | 457 kts | 246° |
| 2026-05-05 19:56 | 74.07179 | -69.54923 | 36483 ft | 457 kts | 245° |
| 2026-05-05 19:56 | 74.04651 | -69.76187 | 36475 ft | 458 kts | 245° |
| 2026-05-05 19:57 | 74.02096 | -69.97439 | 36479 ft | 458 kts | 245° |
| 2026-05-05 19:57 | 73.99525 | -70.18590 | 36479 ft | 458 kts | 245° |
| 2026-05-05 19:58 | 73.96932 | -70.39677 | 36479 ft | 458 kts | 244° |
| 2026-05-05 19:58 | 73.94319 | -70.60701 | 36481 ft | 458 kts | 244° |
| 2026-05-05 19:59 | 73.91684 | -70.81665 | 36479 ft | 458 kts | 244° |
| 2026-05-05 19:59 | 73.89047 | -71.02418 | 36479 ft | 458 kts | 244° |
| 2026-05-05 20:00 | 73.86372 | -71.23248 | 36496 ft | 459 kts | 244° |
| 2026-05-05 20:00 | 73.83669 | -71.44063 | 36476 ft | 460 kts | 244° |
| 2026-05-05 20:01 | 73.80940 | -71.64865 | 36480 ft | 461 kts | 243° |
| 2026-05-05 20:01 | 73.78191 | -71.85594 | 36483 ft | 461 kts | 243° |
| 2026-05-05 20:02 | 73.75420 | -72.06264 | 36481 ft | 461 kts | 243° |
| 2026-05-05 20:02 | 73.72635 | -72.26825 | 36478 ft | 461 kts | 243° |
| 2026-05-05 20:03 | 73.69822 | -72.47377 | 36478 ft | 461 kts | 243° |
| 2026-05-05 20:03 | 73.67011 | -72.67709 | 36478 ft | 461 kts | 242° |
| 2026-05-05 20:04 | 73.64163 | -72.88089 | 36476 ft | 461 kts | 242° |
| 2026-05-05 20:04 | 73.61291 | -73.08435 | 36468 ft | 462 kts | 242° |
| 2026-05-05 20:05 | 73.58391 | -73.28772 | 36468 ft | 462 kts | 242° |
| 2026-05-05 20:05 | 73.55471 | -73.49042 | 36466 ft | 462 kts | 242° |
| 2026-05-05 20:06 | 73.52536 | -73.69213 | 36470 ft | 462 kts | 241° |
| 2026-05-05 20:06 | 73.49584 | -73.89295 | 36464 ft | 462 kts | 241° |
| 2026-05-05 20:07 | 73.46623 | -74.09239 | 36463 ft | 462 kts | 241° |
| 2026-05-05 20:07 | 73.43627 | -74.29224 | 36463 ft | 462 kts | 241° |
| 2026-05-05 20:08 | 73.40614 | -74.49129 | 36458 ft | 462 kts | 240° |
| 2026-05-05 20:08 | 73.37581 | -74.68959 | 36742 ft | 462 kts | 240° |
| 2026-05-05 20:08 | 73.36059 | -74.78845 | 36960 ft | 462 kts | 240° |
| 2026-05-05 20:09 | 73.34530 | -74.88728 | 37164 ft | 462 kts | 240° |
| 2026-05-05 20:09 | 73.33027 | -74.98391 | 37325 ft | 462 kts | 240° |
| 2026-05-05 20:09 | 73.31482 | -75.08280 | 37488 ft | 463 kts | 240° |
| 2026-05-05 20:09 | 73.29937 | -75.18114 | 37661 ft | 463 kts | 240° |
| 2026-05-05 20:10 | 73.28387 | -75.27945 | 37821 ft | 463 kts | 240° |
| 2026-05-05 20:10 | 73.26833 | -75.37747 | 37973 ft | 464 kts | 240° |
| 2026-05-05 20:10 | 73.25274 | -75.47532 | 38118 ft | 464 kts | 240° |
| 2026-05-05 20:10 | 73.23703 | -75.57349 | 38269 ft | 464 kts | 240° |
| 2026-05-05 20:11 | 73.22130 | -75.67131 | 38402 ft | 465 kts | 239° |
| 2026-05-05 20:11 | 73.18961 | -75.86698 | 38454 ft | 469 kts | 239° |
| 2026-05-05 20:12 | 73.15754 | -76.06320 | 38445 ft | 468 kts | 239° |
| 2026-05-05 20:12 | 73.12554 | -76.25709 | 38449 ft | 468 kts | 239° |
| 2026-05-05 20:13 | 73.09318 | -76.45128 | 38455 ft | 468 kts | 239° |
| 2026-05-05 20:13 | 73.06066 | -76.64468 | 38435 ft | 468 kts | 239° |
| 2026-05-05 20:14 | 73.02793 | -76.83753 | 38428 ft | 468 kts | 238° |
| 2026-05-05 20:14 | 72.99473 | -77.02860 | 38430 ft | 467 kts | 236° |
| 2026-05-05 20:15 | 72.95793 | -77.21143 | 38421 ft | 467 kts | 233° |
| 2026-05-05 20:15 | 72.91974 | -77.39041 | 38419 ft | 467 kts | 233° |
| 2026-05-05 20:16 | 72.88182 | -77.56799 | 38391 ft | 468 kts | 233° |
| 2026-05-05 20:16 | 72.84366 | -77.74715 | 38385 ft | 468 kts | 233° |
| 2026-05-05 20:17 | 72.80544 | -77.92586 | 38359 ft | 468 kts | 233° |
| 2026-05-05 20:17 | 72.76712 | -78.10363 | 38360 ft | 468 kts | 233° |
| 2026-05-05 20:18 | 72.72862 | -78.28063 | 38358 ft | 468 kts | 233° |
| 2026-05-05 20:18 | 72.68994 | -78.45698 | 38367 ft | 468 kts | 232° |
| 2026-05-05 20:19 | 72.65114 | -78.63238 | 38371 ft | 468 kts | 232° |
| 2026-05-05 20:19 | 72.61217 | -78.80712 | 38387 ft | 468 kts | 232° |
| 2026-05-05 20:20 | 72.57313 | -78.98075 | 38414 ft | 468 kts | 232° |
| 2026-05-05 20:20 | 72.53380 | -79.15418 | 38393 ft | 469 kts | 232° |
| 2026-05-05 20:21 | 72.49452 | -79.32605 | 38386 ft | 470 kts | 232° |
| 2026-05-05 20:21 | 72.45475 | -79.49862 | 38390 ft | 470 kts | 231° |
| 2026-05-05 20:22 | 72.41492 | -79.67009 | 38395 ft | 470 kts | 231° |
| 2026-05-05 20:22 | 72.37494 | -79.84079 | 38380 ft | 470 kts | 231° |
| 2026-05-05 20:23 | 72.33480 | -80.01082 | 38373 ft | 470 kts | 231° |
| 2026-05-05 20:23 | 72.29451 | -80.18010 | 38376 ft | 469 kts | 231° |
| 2026-05-05 20:24 | 72.25413 | -80.34837 | 38373 ft | 469 kts | 231° |
| 2026-05-05 20:24 | 72.21360 | -80.51598 | 38373 ft | 470 kts | 230° |
| 2026-05-05 20:25 | 72.17298 | -80.68264 | 38363 ft | 472 kts | 230° |
| 2026-05-05 20:25 | 72.13193 | -80.84975 | 38362 ft | 472 kts | 230° |
| 2026-05-05 20:26 | 72.09079 | -81.01588 | 38361 ft | 471 kts | 230° |
| 2026-05-05 20:26 | 72.04942 | -81.18161 | 38344 ft | 471 kts | 230° |
| 2026-05-05 20:27 | 72.00801 | -81.34626 | 38357 ft | 471 kts | 230° |
| 2026-05-05 20:27 | 71.96649 | -81.51006 | 38355 ft | 471 kts | 230° |
| 2026-05-05 20:28 | 71.92480 | -81.67325 | 38353 ft | 471 kts | 229° |
| 2026-05-05 20:28 | 71.88299 | -81.83564 | 38361 ft | 471 kts | 229° |
| 2026-05-05 20:29 | 71.84089 | -81.99789 | 38351 ft | 473 kts | 229° |
| 2026-05-05 20:29 | 71.79882 | -82.15880 | 38345 ft | 474 kts | 229° |
| 2026-05-05 20:30 | 71.75636 | -82.31995 | 38331 ft | 474 kts | 229° |
| 2026-05-05 20:30 | 71.71378 | -82.48033 | 38342 ft | 473 kts | 229° |
| 2026-05-05 20:31 | 71.67114 | -82.63973 | 38334 ft | 473 kts | 229° |
| 2026-05-05 20:31 | 71.62829 | -82.79867 | 38335 ft | 473 kts | 228° |
| 2026-05-05 20:32 | 71.58532 | -82.95687 | 38332 ft | 473 kts | 228° |
| 2026-05-05 20:32 | 71.54221 | -83.11439 | 38331 ft | 473 kts | 228° |
| 2026-05-05 20:33 | 71.49916 | -83.27052 | 38331 ft | 475 kts | 228° |
| 2026-05-05 20:33 | 71.45558 | -83.42740 | 38330 ft | 476 kts | 228° |
| 2026-05-05 20:34 | 71.41898 | -83.55825 | 38326 ft | 476 kts | 227° |
| 2026-05-05 20:34 | 71.37540 | -83.71297 | 38325 ft | 476 kts | 227° |
| 2026-05-05 20:35 | 71.33143 | -83.86794 | 38326 ft | 476 kts | 227° |
| 2026-05-05 20:35 | 71.28734 | -84.02220 | 38324 ft | 476 kts | 227° |
| 2026-05-05 20:36 | 71.24308 | -84.17588 | 38325 ft | 476 kts | 227° |
| 2026-05-05 20:36 | 71.19868 | -84.32894 | 38325 ft | 476 kts | 227° |
| 2026-05-05 20:37 | 71.15446 | -84.48024 | 38325 ft | 477 kts | 227° |
| 2026-05-05 20:37 | 71.10973 | -84.63218 | 38325 ft | 479 kts | 227° |
| 2026-05-05 20:38 | 71.06477 | -84.78379 | 38325 ft | 479 kts | 226° |
| 2026-05-05 20:38 | 71.01964 | -84.93487 | 38325 ft | 479 kts | 226° |
| 2026-05-05 20:39 | 70.97487 | -85.08605 | 38325 ft | 479 kts | 227° |
| 2026-05-05 20:39 | 70.93077 | -85.23865 | 38326 ft | 479 kts | 227° |
| 2026-05-05 20:40 | 70.88655 | -85.39122 | 38324 ft | 479 kts | 227° |
| 2026-05-05 20:40 | 70.84249 | -85.54165 | 38325 ft | 479 kts | 227° |
| 2026-05-05 20:41 | 70.79792 | -85.69240 | 38325 ft | 480 kts | 227° |
| 2026-05-05 20:41 | 70.75293 | -85.84335 | 38322 ft | 481 kts | 227° |
| 2026-05-05 20:42 | 70.70817 | -85.99245 | 38320 ft | 481 kts | 227° |
| 2026-05-05 20:42 | 70.66306 | -86.14172 | 38311 ft | 481 kts | 227° |
| 2026-05-05 20:43 | 70.61784 | -86.29025 | 38314 ft | 481 kts | 226° |
| 2026-05-05 20:43 | 70.57247 | -86.43819 | 38303 ft | 481 kts | 226° |
| 2026-05-05 20:44 | 70.52694 | -86.58565 | 38301 ft | 481 kts | 226° |
| 2026-05-05 20:44 | 70.48138 | -86.73211 | 38303 ft | 481 kts | 226° |
| 2026-05-05 20:45 | 70.41251 | -86.95158 | 38295 ft | 483 kts | 226° |
| 2026-05-05 20:45 | 70.36642 | -87.09717 | 38298 ft | 483 kts | 226° |
| 2026-05-05 20:46 | 70.32019 | -87.24219 | 38298 ft | 483 kts | 226° |
| 2026-05-05 20:46 | 70.27410 | -87.38575 | 38295 ft | 483 kts | 225° |
| 2026-05-05 20:47 | 70.22761 | -87.52954 | 38295 ft | 483 kts | 225° |
| 2026-05-05 20:47 | 70.18095 | -87.67288 | 38285 ft | 483 kts | 225° |
| 2026-05-05 20:48 | 70.13420 | -87.81547 | 38292 ft | 484 kts | 225° |
| 2026-05-05 20:48 | 70.08735 | -87.95740 | 38297 ft | 484 kts | 225° |
| 2026-05-05 20:49 | 70.04054 | -88.09821 | 38292 ft | 486 kts | 225° |
| 2026-05-05 20:49 | 69.99327 | -88.23946 | 38292 ft | 486 kts | 225° |
| 2026-05-05 20:50 | 69.94589 | -88.38005 | 38295 ft | 486 kts | 225° |
| 2026-05-05 20:50 | 69.89830 | -88.52029 | 38295 ft | 486 kts | 225° |
| 2026-05-05 20:51 | 69.85096 | -88.65883 | 38287 ft | 486 kts | 224° |
| 2026-05-05 20:51 | 69.80322 | -88.79763 | 38298 ft | 486 kts | 224° |
| 2026-05-05 20:52 | 69.75533 | -88.93589 | 38293 ft | 486 kts | 224° |
| 2026-05-05 20:52 | 69.70736 | -89.07344 | 38292 ft | 486 kts | 224° |
| 2026-05-05 20:53 | 69.65927 | -89.21045 | 38298 ft | 486 kts | 224° |
| 2026-05-05 20:53 | 69.61103 | -89.34692 | 38298 ft | 486 kts | 224° |
| 2026-05-05 20:54 | 69.56271 | -89.48272 | 38298 ft | 486 kts | 224° |
| 2026-05-05 20:54 | 69.51451 | -89.61727 | 38290 ft | 486 kts | 223° |
| 2026-05-05 20:55 | 69.46596 | -89.75191 | 38293 ft | 487 kts | 223° |
| 2026-05-05 20:55 | 69.41731 | -89.88593 | 38292 ft | 487 kts | 223° |
| 2026-05-05 20:56 | 69.36853 | -90.01939 | 38301 ft | 487 kts | 223° |
| 2026-05-05 20:56 | 69.31962 | -90.15236 | 38300 ft | 488 kts | 223° |
| 2026-05-05 20:57 | 69.27056 | -90.28485 | 38298 ft | 488 kts | 223° |
| 2026-05-05 20:57 | 69.22129 | -90.41703 | 38300 ft | 488 kts | 223° |
| 2026-05-05 20:58 | 69.17231 | -90.54757 | 38299 ft | 488 kts | 223° |
| 2026-05-05 20:58 | 69.12296 | -90.67825 | 38295 ft | 488 kts | 223° |
| 2026-05-05 20:59 | 69.07349 | -90.80840 | 38300 ft | 488 kts | 222° |
| 2026-05-05 20:59 | 69.02390 | -90.93801 | 38302 ft | 488 kts | 222° |
| 2026-05-05 21:00 | 68.97888 | -91.07324 | 38298 ft | 488 kts | 229° |
| 2026-05-05 21:00 | 68.94883 | -91.17456 | 38296 ft | 488 kts | 230° |
| 2026-05-05 21:01 | 68.90609 | -91.32140 | 38294 ft | 489 kts | 230° |
| 2026-05-05 21:01 | 68.86330 | -91.46797 | 38293 ft | 489 kts | 230° |
| 2026-05-05 21:02 | 68.82029 | -91.61384 | 38290 ft | 489 kts | 229° |
| 2026-05-05 21:02 | 68.77697 | -91.75890 | 38287 ft | 489 kts | 229° |
| 2026-05-05 21:03 | 68.73355 | -91.90342 | 38288 ft | 489 kts | 229° |
| 2026-05-05 21:03 | 68.69003 | -92.04757 | 38282 ft | 489 kts | 229° |
| 2026-05-05 21:04 | 68.64628 | -92.19146 | 38284 ft | 491 kts | 229° |
| 2026-05-05 21:04 | 68.60243 | -92.33527 | 38279 ft | 491 kts | 229° |
| 2026-05-05 21:05 | 68.55868 | -92.47730 | 38279 ft | 491 kts | 229° |
| 2026-05-05 21:05 | 68.51443 | -92.61984 | 38280 ft | 491 kts | 229° |
| 2026-05-05 21:06 | 68.47008 | -92.76160 | 38290 ft | 491 kts | 229° |
| 2026-05-05 21:06 | 68.42562 | -92.90282 | 38292 ft | 492 kts | 229° |
| 2026-05-05 21:07 | 68.38087 | -93.04380 | 38284 ft | 494 kts | 229° |
| 2026-05-05 21:07 | 68.33599 | -93.18496 | 38296 ft | 494 kts | 229° |
| 2026-05-05 21:08 | 68.29128 | -93.32457 | 38285 ft | 494 kts | 229° |
| 2026-05-05 21:08 | 68.24613 | -93.46452 | 38298 ft | 494 kts | 229° |
| 2026-05-05 21:09 | 68.20090 | -93.60371 | 38297 ft | 494 kts | 228° |
| 2026-05-05 21:09 | 68.15556 | -93.74235 | 38298 ft | 494 kts | 228° |
| 2026-05-05 21:10 | 68.11001 | -93.88072 | 38301 ft | 495 kts | 228° |
| 2026-05-05 21:10 | 68.06421 | -94.01894 | 38301 ft | 497 kts | 228° |
| 2026-05-05 21:11 | 68.01833 | -94.15651 | 38298 ft | 497 kts | 228° |
| 2026-05-05 21:11 | 67.97218 | -94.29399 | 38306 ft | 497 kts | 228° |
| 2026-05-05 21:12 | 67.92593 | -94.43089 | 38306 ft | 497 kts | 228° |
| 2026-05-05 21:12 | 67.87951 | -94.56743 | 38314 ft | 497 kts | 228° |
| 2026-05-05 21:13 | 67.83309 | -94.70306 | 38318 ft | 497 kts | 227° |
| 2026-05-05 21:13 | 67.78643 | -94.83851 | 38313 ft | 498 kts | 227° |
| 2026-05-05 21:14 | 67.73965 | -94.97352 | 38321 ft | 498 kts | 227° |
| 2026-05-05 21:14 | 67.69272 | -95.10806 | 38312 ft | 498 kts | 227° |
| 2026-05-05 21:15 | 67.64568 | -95.24207 | 38313 ft | 498 kts | 227° |
| 2026-05-05 21:15 | 67.59852 | -95.37557 | 38318 ft | 498 kts | 227° |
| 2026-05-05 21:16 | 67.55128 | -95.50845 | 38309 ft | 498 kts | 227° |
| 2026-05-05 21:16 | 67.50419 | -95.64006 | 38320 ft | 499 kts | 227° |
| 2026-05-05 21:17 | 67.45663 | -95.77218 | 38319 ft | 499 kts | 227° |
| 2026-05-05 21:17 | 67.40898 | -95.90374 | 38320 ft | 500 kts | 227° |
| 2026-05-05 21:18 | 67.36115 | -96.03496 | 38320 ft | 500 kts | 227° |
| 2026-05-05 21:18 | 67.32126 | -96.14377 | 38319 ft | 500 kts | 227° |
| 2026-05-05 21:19 | 67.27318 | -96.27416 | 38322 ft | 500 kts | 226° |
| 2026-05-05 21:19 | 67.22499 | -96.40407 | 38317 ft | 500 kts | 227° |
| 2026-05-05 21:20 | 67.17642 | -96.53419 | 38323 ft | 502 kts | 227° |
| 2026-05-05 21:20 | 67.12813 | -96.66279 | 38322 ft | 503 kts | 226° |
| 2026-05-05 21:21 | 67.07943 | -96.79163 | 38322 ft | 503 kts | 226° |
| 2026-05-05 21:21 | 67.03059 | -96.92009 | 38332 ft | 503 kts | 226° |
| 2026-05-05 21:22 | 66.98135 | -97.04739 | 38324 ft | 503 kts | 225° |
| 2026-05-05 21:22 | 66.93079 | -97.17138 | 38325 ft | 504 kts | 224° |
| 2026-05-05 21:23 | 66.87983 | -97.29432 | 38329 ft | 505 kts | 224° |
| 2026-05-05 21:23 | 66.82878 | -97.41715 | 38326 ft | 505 kts | 224° |
| 2026-05-05 21:24 | 66.77773 | -97.53973 | 38334 ft | 505 kts | 224° |
| 2026-05-05 21:24 | 66.72670 | -97.66193 | 38333 ft | 505 kts | 224° |
| 2026-05-05 21:25 | 66.67552 | -97.78364 | 38329 ft | 506 kts | 224° |
| 2026-05-05 21:25 | 66.62413 | -97.90499 | 38337 ft | 507 kts | 224° |
| 2026-05-05 21:26 | 66.57256 | -98.02603 | 38335 ft | 506 kts | 224° |
| 2026-05-05 21:26 | 66.52097 | -98.14643 | 38336 ft | 506 kts | 224° |
| 2026-05-05 21:27 | 66.46962 | -98.26566 | 38336 ft | 506 kts | 223° |
| 2026-05-05 21:27 | 66.41785 | -98.38493 | 38334 ft | 506 kts | 223° |
| 2026-05-05 21:28 | 66.36592 | -98.50407 | 38334 ft | 506 kts | 223° |
| 2026-05-05 21:28 | 66.31396 | -98.62248 | 38335 ft | 506 kts | 223° |
| 2026-05-05 21:29 | 66.26194 | -98.74036 | 38335 ft | 506 kts | 223° |
| 2026-05-05 21:29 | 66.20973 | -98.85813 | 38334 ft | 508 kts | 223° |
| 2026-05-05 21:30 | 66.15721 | -98.97585 | 38336 ft | 509 kts | 223° |
| 2026-05-05 21:30 | 66.10460 | -99.09289 | 38336 ft | 509 kts | 223° |
| 2026-05-05 21:31 | 66.05187 | -99.20913 | 38336 ft | 509 kts | 223° |
| 2026-05-05 21:31 | 65.99915 | -99.32529 | 38342 ft | 509 kts | 223° |
| 2026-05-05 21:32 | 65.94667 | -99.44010 | 38335 ft | 508 kts | 222° |
| 2026-05-05 21:32 | 65.89381 | -99.55489 | 38336 ft | 508 kts | 223° |
| 2026-05-05 21:33 | 65.84090 | -99.66956 | 38341 ft | 508 kts | 223° |
| 2026-05-05 21:33 | 65.78793 | -99.78371 | 38339 ft | 508 kts | 222° |
| 2026-05-05 21:34 | 65.73493 | -99.89712 | 38344 ft | 508 kts | 222° |
| 2026-05-05 21:34 | 65.68171 | -100.01030 | 38343 ft | 508 kts | 222° |
| 2026-05-05 21:35 | 65.62845 | -100.12291 | 38339 ft | 508 kts | 222° |
| 2026-05-05 21:35 | 65.57510 | -100.23505 | 38342 ft | 508 kts | 222° |
| 2026-05-05 21:36 | 65.52161 | -100.34690 | 38344 ft | 508 kts | 222° |
| 2026-05-05 21:36 | 65.46835 | -100.45763 | 38344 ft | 508 kts | 222° |
| 2026-05-05 21:37 | 65.41471 | -100.56852 | 38346 ft | 508 kts | 221° |
| 2026-05-05 21:37 | 65.36098 | -100.67898 | 38342 ft | 509 kts | 221° |
| 2026-05-05 21:38 | 65.30719 | -100.78894 | 38346 ft | 508 kts | 221° |
| 2026-05-05 21:38 | 65.25328 | -100.89852 | 38342 ft | 509 kts | 221° |
| 2026-05-05 21:39 | 65.19933 | -101.00761 | 38348 ft | 509 kts | 221° |
| 2026-05-05 21:39 | 65.14516 | -101.11652 | 38345 ft | 510 kts | 221° |
| 2026-05-05 21:40 | 65.09125 | -101.22432 | 38347 ft | 510 kts | 221° |
| 2026-05-05 21:40 | 65.03688 | -101.33244 | 38345 ft | 510 kts | 221° |
| 2026-05-05 21:41 | 64.98246 | -101.44005 | 38349 ft | 510 kts | 221° |
| 2026-05-05 21:41 | 64.92797 | -101.54719 | 38348 ft | 510 kts | 221° |
| 2026-05-05 21:42 | 64.87332 | -101.65387 | 38348 ft | 510 kts | 221° |
| 2026-05-05 21:42 | 64.81859 | -101.76042 | 38351 ft | 511 kts | 221° |
| 2026-05-05 21:43 | 64.76373 | -101.86670 | 38349 ft | 511 kts | 221° |
| 2026-05-05 21:43 | 64.70904 | -101.97200 | 38349 ft | 512 kts | 221° |
| 2026-05-05 21:44 | 64.65397 | -102.07739 | 38356 ft | 512 kts | 220° |
| 2026-05-05 21:44 | 64.59885 | -102.18230 | 38334 ft | 512 kts | 221° |
| 2026-05-05 21:45 | 64.54350 | -102.28707 | 38363 ft | 512 kts | 221° |
| 2026-05-05 21:45 | 64.48819 | -102.39122 | 38362 ft | 512 kts | 220° |
| 2026-05-05 21:46 | 64.43273 | -102.49513 | 38351 ft | 512 kts | 220° |
| 2026-05-05 21:46 | 64.37749 | -102.59804 | 38357 ft | 512 kts | 220° |
| 2026-05-05 21:47 | 64.32186 | -102.70113 | 38355 ft | 512 kts | 220° |
| 2026-05-05 21:47 | 64.26608 | -102.80394 | 38351 ft | 512 kts | 220° |
| 2026-05-05 21:48 | 64.21027 | -102.90626 | 38357 ft | 513 kts | 220° |
| 2026-05-05 21:48 | 64.15438 | -103.00819 | 38356 ft | 513 kts | 220° |
| 2026-05-05 21:49 | 64.09841 | -103.10973 | 38360 ft | 513 kts | 220° |
| 2026-05-05 21:49 | 64.04230 | -103.21097 | 38359 ft | 513 kts | 220° |
| 2026-05-05 21:50 | 63.98610 | -103.31186 | 38360 ft | 513 kts | 220° |
| 2026-05-05 21:50 | 63.93023 | -103.41162 | 38342 ft | 513 kts | 220° |
| 2026-05-05 21:51 | 63.87385 | -103.51177 | 38360 ft | 514 kts | 220° |
| 2026-05-05 21:51 | 63.81737 | -103.61159 | 38362 ft | 514 kts | 220° |
| 2026-05-05 21:52 | 63.73245 | -103.76066 | 38360 ft | 514 kts | 220° |
| 2026-05-05 21:53 | 63.67582 | -103.85945 | 38360 ft | 515 kts | 220° |
| 2026-05-05 21:53 | 63.61942 | -103.95730 | 38361 ft | 515 kts | 219° |
| 2026-05-05 21:54 | 63.56260 | -104.05538 | 38359 ft | 515 kts | 220° |
| 2026-05-05 21:54 | 63.50558 | -104.15329 | 38365 ft | 516 kts | 220° |
| 2026-05-05 21:55 | 63.44850 | -104.25082 | 38361 ft | 516 kts | 219° |
| 2026-05-05 21:55 | 63.39133 | -104.34799 | 38363 ft | 516 kts | 219° |
| 2026-05-05 21:56 | 63.33414 | -104.44471 | 38366 ft | 516 kts | 219° |
| 2026-05-05 21:56 | 63.27725 | -104.54041 | 38360 ft | 516 kts | 219° |
| 2026-05-05 21:57 | 63.21991 | -104.63640 | 38363 ft | 516 kts | 219° |
| 2026-05-05 21:57 | 63.16245 | -104.73210 | 38357 ft | 516 kts | 219° |
| 2026-05-05 21:58 | 63.10498 | -104.82731 | 38357 ft | 516 kts | 219° |
| 2026-05-05 21:58 | 63.04740 | -104.92222 | 38360 ft | 516 kts | 219° |
| 2026-05-05 21:59 | 62.98788 | -105.01094 | 38363 ft | 519 kts | 210° |
| 2026-05-05 21:59 | 62.92360 | -105.08355 | 38364 ft | 520 kts | 208° |
| 2026-05-05 22:00 | 62.85855 | -105.15247 | 38361 ft | 521 kts | 207° |
| 2026-05-05 22:00 | 62.79306 | -105.22119 | 38362 ft | 521 kts | 207° |
| 2026-05-05 22:01 | 62.72771 | -105.28992 | 38362 ft | 521 kts | 208° |
| 2026-05-05 22:01 | 62.66234 | -105.35862 | 38360 ft | 521 kts | 207° |
| 2026-05-05 22:02 | 62.59693 | -105.42709 | 38363 ft | 521 kts | 207° |
| 2026-05-05 22:02 | 62.53183 | -105.49488 | 38360 ft | 521 kts | 207° |
| 2026-05-05 22:03 | 62.46639 | -105.56268 | 38360 ft | 522 kts | 207° |
| 2026-05-05 22:03 | 62.40087 | -105.63024 | 38355 ft | 522 kts | 207° |
| 2026-05-05 22:04 | 62.34628 | -105.68626 | 38369 ft | 523 kts | 207° |
| 2026-05-05 22:04 | 62.28049 | -105.75347 | 38351 ft | 523 kts | 207° |
| 2026-05-05 22:05 | 62.21466 | -105.82040 | 38356 ft | 523 kts | 207° |
| 2026-05-05 22:05 | 62.14886 | -105.88698 | 38356 ft | 523 kts | 207° |
| 2026-05-05 22:06 | 62.08292 | -105.95338 | 38352 ft | 523 kts | 207° |
| 2026-05-05 22:06 | 62.01696 | -106.01949 | 38354 ft | 523 kts | 207° |
| 2026-05-05 22:07 | 61.95097 | -106.08531 | 38342 ft | 524 kts | 207° |
| 2026-05-05 22:07 | 61.88483 | -106.15097 | 38348 ft | 525 kts | 207° |
| 2026-05-05 22:08 | 61.81902 | -106.21597 | 38337 ft | 525 kts | 207° |
| 2026-05-05 22:08 | 61.75238 | -106.28148 | 38338 ft | 525 kts | 207° |
| 2026-05-05 22:09 | 61.68650 | -106.34594 | 38347 ft | 525 kts | 207° |
| 2026-05-05 22:09 | 61.62007 | -106.41063 | 38338 ft | 525 kts | 207° |
| 2026-05-05 22:10 | 61.55370 | -106.47495 | 38322 ft | 525 kts | 207° |
| 2026-05-05 22:10 | 61.48721 | -106.53911 | 38343 ft | 526 kts | 207° |
| 2026-05-05 22:11 | 61.42058 | -106.60307 | 38331 ft | 527 kts | 207° |
| 2026-05-05 22:11 | 61.35384 | -106.66684 | 38334 ft | 527 kts | 207° |
| 2026-05-05 22:12 | 61.28712 | -106.73028 | 38325 ft | 527 kts | 207° |
| 2026-05-05 22:12 | 61.22044 | -106.79341 | 38325 ft | 527 kts | 207° |
| 2026-05-05 22:13 | 61.15399 | -106.85602 | 38328 ft | 527 kts | 207° |
| 2026-05-05 22:13 | 61.08716 | -106.91873 | 38316 ft | 528 kts | 207° |
| 2026-05-05 22:14 | 61.02010 | -106.98133 | 38317 ft | 529 kts | 207° |
| 2026-05-05 22:14 | 60.95382 | -107.04695 | 38309 ft | 528 kts | 210° |
| 2026-05-05 22:15 | 60.88879 | -107.11694 | 38311 ft | 528 kts | 211° |
| 2026-05-05 22:15 | 60.82367 | -107.18718 | 38316 ft | 528 kts | 210° |
| 2026-05-05 22:16 | 60.75846 | -107.25646 | 38301 ft | 528 kts | 210° |
| 2026-05-05 22:16 | 60.69316 | -107.32508 | 38299 ft | 529 kts | 210° |
| 2026-05-05 22:17 | 60.62792 | -107.39323 | 38300 ft | 530 kts | 210° |
| 2026-05-05 22:17 | 60.56229 | -107.46149 | 38297 ft | 530 kts | 210° |
| 2026-05-05 22:18 | 60.49656 | -107.52955 | 38302 ft | 530 kts | 210° |
| 2026-05-05 22:18 | 60.43078 | -107.59737 | 38296 ft | 530 kts | 210° |
| 2026-05-05 22:19 | 60.36498 | -107.66490 | 38299 ft | 530 kts | 210° |
| 2026-05-05 22:19 | 60.29919 | -107.73212 | 38283 ft | 530 kts | 210° |
| 2026-05-05 22:20 | 60.23308 | -107.79939 | 38297 ft | 532 kts | 210° |
| 2026-05-05 22:20 | 60.16694 | -107.86633 | 38299 ft | 532 kts | 210° |
| 2026-05-05 22:21 | 60.10100 | -107.93278 | 38302 ft | 532 kts | 210° |
| 2026-05-05 22:21 | 60.03469 | -107.99932 | 38293 ft | 533 kts | 210° |
| 2026-05-05 22:22 | 59.96848 | -108.06544 | 38303 ft | 533 kts | 210° |
| 2026-05-05 22:22 | 59.90205 | -108.13150 | 38298 ft | 533 kts | 210° |
| 2026-05-05 22:23 | 59.83547 | -108.19743 | 38306 ft | 534 kts | 210° |
| 2026-05-05 22:23 | 59.76924 | -108.26267 | 38315 ft | 534 kts | 210° |
| 2026-05-05 22:24 | 59.70257 | -108.32807 | 38303 ft | 535 kts | 210° |
| 2026-05-05 22:24 | 59.63580 | -108.39327 | 38329 ft | 535 kts | 210° |
| 2026-05-05 22:25 | 59.56897 | -108.45823 | 38328 ft | 535 kts | 210° |
| 2026-05-05 22:25 | 59.50219 | -108.52287 | 38323 ft | 535 kts | 210° |
| 2026-05-05 22:26 | 59.43523 | -108.58744 | 38338 ft | 536 kts | 210° |
| 2026-05-05 22:26 | 59.36820 | -108.65175 | 38344 ft | 537 kts | 210° |
| 2026-05-05 22:27 | 59.30097 | -108.71595 | 38344 ft | 537 kts | 210° |
| 2026-05-05 22:27 | 59.23370 | -108.77991 | 38346 ft | 537 kts | 210° |
| 2026-05-05 22:28 | 59.16638 | -108.84364 | 38343 ft | 537 kts | 210° |
| 2026-05-05 22:28 | 59.09909 | -108.90707 | 38345 ft | 537 kts | 209° |
| 2026-05-05 22:29 | 59.03167 | -108.97036 | 38333 ft | 537 kts | 209° |
| 2026-05-05 22:29 | 58.96447 | -109.03388 | 38333 ft | 537 kts | 210° |
| 2026-05-05 22:30 | 58.89799 | -109.09819 | 38331 ft | 537 kts | 210° |
| 2026-05-05 22:30 | 58.83120 | -109.16279 | 38334 ft | 537 kts | 210° |
| 2026-05-05 22:31 | 58.76432 | -109.22703 | 38332 ft | 537 kts | 210° |
| 2026-05-05 22:31 | 58.69731 | -109.29100 | 38317 ft | 539 kts | 210° |
| 2026-05-05 22:32 | 58.62988 | -109.35507 | 38316 ft | 540 kts | 210° |
| 2026-05-05 22:32 | 58.56234 | -109.41891 | 38301 ft | 541 kts | 210° |
| 2026-05-05 22:33 | 58.49520 | -109.48212 | 38302 ft | 541 kts | 210° |
| 2026-05-05 22:33 | 58.42761 | -109.54549 | 38282 ft | 541 kts | 210° |
| 2026-05-05 22:34 | 58.35999 | -109.60863 | 38239 ft | 541 kts | 210° |
| 2026-05-05 22:34 | 58.29238 | -109.67151 | 38290 ft | 542 kts | 210° |
| 2026-05-05 22:35 | 58.22461 | -109.73424 | 38284 ft | 542 kts | 210° |
| 2026-05-05 22:35 | 58.15669 | -109.79683 | 38267 ft | 542 kts | 210° |
| 2026-05-05 22:36 | 58.08876 | -109.85918 | 38258 ft | 542 kts | 210° |
| 2026-05-05 22:36 | 58.02076 | -109.92133 | 38263 ft | 542 kts | 210° |
| 2026-05-05 22:37 | 57.95320 | -109.98282 | 38272 ft | 543 kts | 210° |
| 2026-05-05 22:37 | 57.88485 | -110.04477 | 38271 ft | 543 kts | 210° |
| 2026-05-05 22:38 | 57.81664 | -110.10607 | 38272 ft | 543 kts | 209° |
| 2026-05-05 22:38 | 57.74832 | -110.16680 | 38304 ft | 544 kts | 209° |
| 2026-05-05 22:38 | 57.71454 | -110.19686 | 38525 ft | 543 kts | 209° |
| 2026-05-05 22:39 | 57.68049 | -110.22719 | 38877 ft | 541 kts | 209° |
| 2026-05-05 22:39 | 57.64654 | -110.25742 | 39118 ft | 539 kts | 209° |
| 2026-05-05 22:39 | 57.61270 | -110.28752 | 39273 ft | 538 kts | 209° |
| 2026-05-05 22:39 | 57.57895 | -110.31750 | 39377 ft | 538 kts | 209° |
| 2026-05-05 22:40 | 57.54509 | -110.34743 | 39448 ft | 539 kts | 209° |
| 2026-05-05 22:40 | 57.51123 | -110.37742 | 39578 ft | 539 kts | 209° |
| 2026-05-05 22:40 | 57.47732 | -110.40739 | 39736 ft | 538 kts | 209° |
| 2026-05-05 22:40 | 57.44355 | -110.43718 | 39906 ft | 537 kts | 209° |
| 2026-05-05 22:41 | 57.40979 | -110.46688 | 40053 ft | 536 kts | 209° |
| 2026-05-05 22:41 | 57.37605 | -110.49649 | 40183 ft | 536 kts | 208° |
| 2026-05-05 22:41 | 57.34228 | -110.52609 | 40271 ft | 537 kts | 208° |
| 2026-05-05 22:42 | 57.27499 | -110.58481 | 40265 ft | 537 kts | 208° |
| 2026-05-05 22:42 | 57.20735 | -110.64356 | 40254 ft | 537 kts | 209° |
| 2026-05-05 22:43 | 57.13971 | -110.70216 | 40269 ft | 536 kts | 208° |
| 2026-05-05 22:43 | 57.07215 | -110.76046 | 40268 ft | 536 kts | 208° |
| 2026-05-05 22:44 | 57.00458 | -110.81851 | 40268 ft | 536 kts | 208° |
| 2026-05-05 22:44 | 56.93694 | -110.87639 | 40265 ft | 536 kts | 208° |
| 2026-05-05 22:45 | 56.86920 | -110.93410 | 40255 ft | 536 kts | 208° |
| 2026-05-05 22:45 | 56.80147 | -110.99157 | 40241 ft | 536 kts | 208° |
| 2026-05-05 22:46 | 56.74525 | -111.03911 | 40232 ft | 535 kts | 208° |
| 2026-05-05 22:46 | 56.67754 | -111.09616 | 40225 ft | 535 kts | 208° |
| 2026-05-05 22:47 | 56.61004 | -111.15346 | 40218 ft | 536 kts | 209° |
| 2026-05-05 22:47 | 56.54268 | -111.21198 | 40223 ft | 536 kts | 209° |
| 2026-05-05 22:48 | 56.47545 | -111.27041 | 40216 ft | 536 kts | 210° |
| 2026-05-05 22:48 | 56.40859 | -111.32819 | 40251 ft | 536 kts | 209° |
| 2026-05-05 22:49 | 56.34128 | -111.38600 | 40280 ft | 536 kts | 209° |
| 2026-05-05 22:49 | 56.27386 | -111.44364 | 40274 ft | 536 kts | 209° |
| 2026-05-05 22:50 | 56.20639 | -111.50109 | 40277 ft | 536 kts | 209° |
| 2026-05-05 22:50 | 56.13887 | -111.55833 | 40270 ft | 536 kts | 209° |
| 2026-05-05 22:51 | 56.07125 | -111.61547 | 40278 ft | 538 kts | 209° |
| 2026-05-05 22:51 | 56.00356 | -111.67243 | 40286 ft | 538 kts | 209° |
| 2026-05-05 22:52 | 55.93617 | -111.72891 | 40268 ft | 538 kts | 209° |
| 2026-05-05 22:52 | 55.86830 | -111.78560 | 40270 ft | 538 kts | 209° |
| 2026-05-05 22:53 | 55.80043 | -111.84208 | 40269 ft | 539 kts | 209° |
| 2026-05-05 22:53 | 55.73244 | -111.89848 | 40252 ft | 539 kts | 209° |
| 2026-05-05 22:54 | 55.66425 | -111.95482 | 40273 ft | 541 kts | 208° |
| 2026-05-05 22:54 | 55.59579 | -112.01108 | 40259 ft | 542 kts | 208° |
| 2026-05-05 22:55 | 55.52742 | -112.06709 | 40259 ft | 542 kts | 208° |
| 2026-05-05 22:55 | 55.45943 | -112.12260 | 40251 ft | 542 kts | 208° |
| 2026-05-05 22:56 | 55.39100 | -112.17827 | 40251 ft | 542 kts | 208° |
| 2026-05-05 22:56 | 55.32239 | -112.23387 | 40258 ft | 542 kts | 208° |
| 2026-05-05 22:57 | 55.25392 | -112.28913 | 40251 ft | 541 kts | 208° |
| 2026-05-05 22:57 | 55.18547 | -112.34417 | 40257 ft | 541 kts | 208° |
| 2026-05-05 22:58 | 55.11688 | -112.39912 | 40254 ft | 541 kts | 208° |
| 2026-05-05 22:58 | 55.04827 | -112.45389 | 40237 ft | 542 kts | 208° |
| 2026-05-05 22:59 | 54.97937 | -112.50875 | 40265 ft | 546 kts | 208° |
| 2026-05-05 22:59 | 54.90932 | -112.55748 | 40264 ft | 550 kts | 197° |
| 2026-05-05 23:00 | 54.79463 | -112.57867 | 40273 ft | 555 kts | 183° |
| 2026-05-05 23:00 | 54.71737 | -112.58311 | 40277 ft | 555 kts | 182° |
| 2026-05-05 23:01 | 54.64017 | -112.58740 | 40268 ft | 555 kts | 182° |
| 2026-05-05 23:01 | 54.56346 | -112.59235 | 40226 ft | 554 kts | 183° |
| 2026-05-05 23:02 | 54.48565 | -112.59774 | 40276 ft | 558 kts | 183° |
| 2026-05-05 23:02 | 54.40845 | -112.60316 | 40272 ft | 558 kts | 183° |
| 2026-05-05 23:03 | 54.33068 | -112.60856 | 40277 ft | 557 kts | 183° |
| 2026-05-05 23:03 | 54.25316 | -112.61390 | 40276 ft | 557 kts | 183° |
| 2026-05-05 23:04 | 54.17613 | -112.61918 | 40270 ft | 557 kts | 183° |
| 2026-05-05 23:04 | 54.09873 | -112.62449 | 40272 ft | 556 kts | 183° |
| 2026-05-05 23:05 | 54.02129 | -112.62981 | 40270 ft | 556 kts | 183° |
| 2026-05-05 23:05 | 53.94385 | -112.63507 | 40242 ft | 556 kts | 182° |
| 2026-05-05 23:06 | 53.86616 | -112.64028 | 40271 ft | 561 kts | 182° |
| 2026-05-05 23:06 | 53.78819 | -112.64549 | 40271 ft | 560 kts | 182° |
| 2026-05-05 23:07 | 53.71014 | -112.65072 | 40275 ft | 560 kts | 182° |
| 2026-05-05 23:07 | 53.63227 | -112.65593 | 40273 ft | 560 kts | 182° |
| 2026-05-05 23:08 | 53.55435 | -112.66111 | 40271 ft | 559 kts | 182° |
| 2026-05-05 23:08 | 53.47725 | -112.66622 | 40265 ft | 558 kts | 182° |
| 2026-05-05 23:09 | 53.39947 | -112.67136 | 40268 ft | 558 kts | 182° |
| 2026-05-05 23:09 | 53.32177 | -112.67648 | 40271 ft | 560 kts | 182° |
| 2026-05-05 23:10 | 53.24368 | -112.68160 | 40266 ft | 562 kts | 182° |
| 2026-05-05 23:10 | 53.16592 | -112.68669 | 40266 ft | 562 kts | 182° |
| 2026-05-05 23:11 | 53.08784 | -112.69178 | 40266 ft | 562 kts | 182° |
| 2026-05-05 23:11 | 53.00980 | -112.69684 | 40262 ft | 560 kts | 182° |
| 2026-05-05 23:12 | 52.93175 | -112.70189 | 40256 ft | 560 kts | 182° |
| 2026-05-05 23:12 | 52.85372 | -112.70692 | 40256 ft | 560 kts | 182° |
| 2026-05-05 23:13 | 52.77635 | -112.71428 | 40202 ft | 559 kts | 189° |
| 2026-05-05 23:13 | 52.73861 | -112.72687 | 39836 ft | 552 kts | 196° |
| 2026-05-05 23:13 | 52.70142 | -112.74262 | 39274 ft | 550 kts | 197° |
| 2026-05-05 23:14 | 52.66432 | -112.75904 | 38543 ft | 553 kts | 197° |
| 2026-05-05 23:14 | 52.62710 | -112.77534 | 37837 ft | 553 kts | 197° |
| 2026-05-05 23:14 | 52.58988 | -112.79152 | 37193 ft | 553 kts | 198° |
| 2026-05-05 23:14 | 52.55262 | -112.80769 | 36534 ft | 554 kts | 198° |
| 2026-05-05 23:15 | 52.51521 | -112.82391 | 35881 ft | 556 kts | 198° |
| 2026-05-05 23:15 | 52.47773 | -112.84015 | 35127 ft | 559 kts | 198° |
| 2026-05-05 23:15 | 52.43998 | -112.85648 | 34327 ft | 564 kts | 198° |
| 2026-05-05 23:15 | 52.40223 | -112.87279 | 33321 ft | 571 kts | 198° |
| 2026-05-05 23:16 | 52.36365 | -112.88946 | 32441 ft | 574 kts | 198° |
| 2026-05-05 23:16 | 52.32487 | -112.90615 | 31565 ft | 575 kts | 198° |
| 2026-05-05 23:16 | 52.28621 | -112.92276 | 30702 ft | 577 kts | 198° |
| 2026-05-05 23:16 | 52.24729 | -112.93958 | 29712 ft | 579 kts | 197° |
| 2026-05-05 23:17 | 52.20829 | -112.95627 | 28919 ft | 577 kts | 197° |
| 2026-05-05 23:17 | 52.16965 | -112.97269 | 28284 ft | 571 kts | 197° |
| 2026-05-05 23:17 | 52.13134 | -112.98894 | 27649 ft | 566 kts | 197° |
| 2026-05-05 23:17 | 52.09340 | -113.00499 | 27005 ft | 562 kts | 197° |
| 2026-05-05 23:18 | 52.05568 | -113.02084 | 26365 ft | 558 kts | 197° |
| 2026-05-05 23:18 | 52.01830 | -113.03656 | 25733 ft | 553 kts | 197° |
| 2026-05-05 23:18 | 51.98121 | -113.05217 | 25110 ft | 549 kts | 197° |
| 2026-05-05 23:18 | 51.94428 | -113.06772 | 24459 ft | 545 kts | 196° |
| 2026-05-05 23:19 | 51.90779 | -113.08308 | 23873 ft | 540 kts | 196° |
| 2026-05-05 23:19 | 51.87157 | -113.09829 | 23192 ft | 535 kts | 196° |
| 2026-05-05 23:19 | 51.83578 | -113.11330 | 22534 ft | 529 kts | 196° |
| 2026-05-05 23:19 | 51.80031 | -113.12816 | 21926 ft | 522 kts | 196° |
| 2026-05-05 23:20 | 51.76534 | -113.14277 | 21328 ft | 516 kts | 196° |
| 2026-05-05 23:20 | 51.73081 | -113.15718 | 20722 ft | 510 kts | 196° |
| 2026-05-05 23:20 | 51.69665 | -113.17141 | 20112 ft | 505 kts | 196° |
| 2026-05-05 23:20 | 51.66276 | -113.18551 | 19519 ft | 500 kts | 196° |
| 2026-05-05 23:21 | 51.62917 | -113.19947 | 18882 ft | 496 kts | 196° |
| 2026-05-05 23:21 | 51.59591 | -113.21316 | 18235 ft | 491 kts | 196° |
| 2026-05-05 23:21 | 51.56294 | -113.22670 | 17643 ft | 484 kts | 196° |
| 2026-05-05 23:21 | 51.53143 | -113.24270 | 17113 ft | 470 kts | 204° |
| 2026-05-05 23:22 | 51.50189 | -113.26454 | 16273 ft | 462 kts | 211° |
| 2026-05-05 23:22 | 51.47438 | -113.29003 | 15504 ft | 449 kts | 215° |
| 2026-05-05 23:22 | 51.44854 | -113.31672 | 14662 ft | 436 kts | 216° |
| 2026-05-05 23:22 | 51.42383 | -113.34319 | 13989 ft | 419 kts | 216° |
| 2026-05-05 23:23 | 51.39984 | -113.36890 | 13185 ft | 413 kts | 216° |
| 2026-05-05 23:23 | 51.37608 | -113.39417 | 12593 ft | 407 kts | 215° |
| 2026-05-05 23:23 | 51.35294 | -113.41849 | 12028 ft | 400 kts | 215° |
| 2026-05-05 23:23 | 51.32994 | -113.44238 | 11750 ft | 386 kts | 214° |
| 2026-05-05 23:24 | 51.30791 | -113.46495 | 11611 ft | 368 kts | 214° |
| 2026-05-05 23:24 | 51.28672 | -113.48644 | 11492 ft | 352 kts | 213° |
| 2026-05-05 23:24 | 51.26650 | -113.50680 | 11339 ft | 338 kts | 213° |
| 2026-05-05 23:24 | 51.24693 | -113.52641 | 11190 ft | 323 kts | 214° |
| 2026-05-05 23:25 | 51.22829 | -113.54514 | 11049 ft | 310 kts | 214° |
| 2026-05-05 23:25 | 51.21035 | -113.56315 | 10890 ft | 299 kts | 214° |
| 2026-05-05 23:25 | 51.19295 | -113.58076 | 10610 ft | 294 kts | 214° |
| 2026-05-05 23:25 | 51.17575 | -113.59816 | 10349 ft | 291 kts | 214° |
| 2026-05-05 23:26 | 51.15875 | -113.61538 | 10060 ft | 287 kts | 214° |
| 2026-05-05 23:26 | 51.14193 | -113.63241 | 9777 ft | 288 kts | 214° |
| 2026-05-05 23:26 | 51.12487 | -113.64968 | 9494 ft | 291 kts | 214° |
| 2026-05-05 23:26 | 51.10777 | -113.66694 | 9220 ft | 291 kts | 213° |
| 2026-05-05 23:27 | 51.09067 | -113.68412 | 8945 ft | 290 kts | 213° |
| 2026-05-05 23:27 | 51.07347 | -113.70110 | 8574 ft | 290 kts | 213° |
| 2026-05-05 23:27 | 51.05665 | -113.71768 | 8215 ft | 284 kts | 213° |
| 2026-05-05 23:27 | 51.04013 | -113.73400 | 7856 ft | 278 kts | 212° |
| 2026-05-05 23:28 | 51.02366 | -113.75040 | 7326 ft | 281 kts | 213° |
| 2026-05-05 23:28 | 51.00715 | -113.76701 | 7065 ft | 280 kts | 213° |
| 2026-05-05 23:28 | 50.99068 | -113.78361 | 6968 ft | 281 kts | 212° |
| 2026-05-05 23:28 | 50.97414 | -113.80048 | 6552 ft | 284 kts | 213° |
| 2026-05-05 23:29 | 50.95797 | -113.81800 | 6194 ft | 279 kts | 220° |
| 2026-05-05 23:29 | 50.94645 | -113.84168 | 6053 ft | 263 kts | 245° |
| 2026-05-05 23:29 | 50.94003 | -113.86783 | 6015 ft | 246 kts | 258° |
| 2026-05-05 23:29 | 50.93786 | -113.89438 | 5786 ft | 243 kts | 271° |
| 2026-05-05 23:30 | 50.93775 | -113.92115 | 5547 ft | 239 kts | 273° |
| 2026-05-05 23:30 | 50.93778 | -113.93866 | 5532 ft | 240 kts | 272° |
| 2026-05-05 23:30 | 50.94192 | -113.97274 | 5524 ft | 235 kts | 301° |
| 2026-05-05 23:30 | 50.95245 | -113.99086 | 5515 ft | 215 kts | 327° |
| 2026-05-05 23:31 | 50.96575 | -113.99822 | 5515 ft | 199 kts | 3° |
| 2026-05-05 23:31 | 50.97881 | -113.99524 | 5521 ft | 180 kts | 9° |
| 2026-05-05 23:31 | 50.99063 | -113.99187 | 5505 ft | 171 kts | 9° |
| 2026-05-05 23:31 | 51.00251 | -113.99023 | 5505 ft | 172 kts | 2° |
| 2026-05-05 23:32 | 51.01434 | -113.99025 | 5501 ft | 165 kts | 359° |
| 2026-05-05 23:32 | 51.02556 | -113.99038 | 5363 ft | 158 kts | 0° |
| 2026-05-05 23:32 | 51.03281 | -113.99037 | 5219 ft | 157 kts | 1° |
| 2026-05-05 23:32 | 51.04361 | -113.99029 | 5001 ft | 154 kts | 2° |
| 2026-05-05 23:33 | 51.05425 | -113.99021 | 4793 ft | 152 kts | 1° |
| 2026-05-05 23:33 | 51.06470 | -113.99049 | 4571 ft | 149 kts | 360° |
| 2026-05-05 23:33 | 51.07505 | -113.99084 | 4296 ft | 148 kts | 1° |
| 2026-05-05 23:33 | 51.08512 | -113.99087 | 4091 ft | 141 kts | 4° |
| 2026-05-05 23:34 | 51.09483 | -113.99066 | 3896 ft | 140 kts | 2° |
| 2026-05-05 23:34 | 51.10456 | -113.99055 | 3741 ft | 141 kts | 2° |
| 2026-05-05 23:34 | 51.11441 | -113.99049 | 3580 ft | 138 kts | 1° |
| 2026-05-05 23:34 | 51.12306 | -113.99038 | 3564 ft | 107 kts | 0° |
| 2026-05-05 23:35 | 51.12893 | -113.99036 | 3566 ft | 62 kts | 360° |
| 2026-05-05 23:35 | 51.13221 | -113.99036 | 3562 ft | 42 kts | 0° |
| 2026-05-05 23:35 | 51.13395 | -113.99041 | 3572 ft | 14 kts | 351° |
| 2026-05-05 23:35 | 51.13485 | -113.99095 | 3567 ft | 14 kts | 334° |
| 2026-05-05 23:36 | 51.13562 | -113.99166 | 3578 ft | 12 kts | 328° |
| 2026-05-05 23:36 | 51.13623 | -113.99244 | 3574 ft | 11 kts | 315° |
| 2026-05-05 23:36 | 51.13657 | -113.99346 | 3572 ft | 11 kts | 278° |
| 2026-05-05 23:36 | 51.13611 | -113.99431 | 3573 ft | 12 kts | 200° |
| 2026-05-05 23:37 | 51.13512 | -113.99442 | 3571 ft | 16 kts | 180° |
| 2026-05-05 23:37 | 51.13383 | -113.99443 | 3572 ft | 21 kts | 180° |
| 2026-05-05 23:37 | 51.13226 | -113.99444 | 3563 ft | 23 kts | 180° |
| 2026-05-05 23:37 | 51.13072 | -113.99443 | 3566 ft | 14 kts | 179° |
| 2026-05-05 23:38 | 51.13017 | -113.99443 | 3565 ft | 0 kts | 180° |
| 2026-05-05 23:38 | 51.13016 | -113.99443 | 3565 ft | 1 kts | 180° |
| 2026-05-05 23:38 | 51.12947 | -113.99444 | 3563 ft | 17 kts | 180° |
| 2026-05-05 23:39 | 51.12826 | -113.99443 | 3567 ft | 18 kts | 180° |
| 2026-05-05 23:39 | 51.12736 | -113.99446 | 3562 ft | 11 kts | 192° |
| 2026-05-05 23:39 | 51.12707 | -113.99539 | 3563 ft | 11 kts | 265° |
| 2026-05-05 23:39 | 51.12705 | -113.99668 | 3566 ft | 13 kts | 270° |
| 2026-05-05 23:40 | 51.12705 | -113.99807 | 3562 ft | 9 kts | 269° |
| 2026-05-05 23:40 | 51.12734 | -113.99870 | 3560 ft | 8 kts | 346° |
| 2026-05-05 23:40 | 51.12796 | -113.99876 | 3565 ft | 10 kts | 356° |
| 2026-05-05 23:40 | 51.12842 | -113.99932 | 3563 ft | 5 kts | 300° |
| 2026-05-05 23:41 | 51.12874 | -113.99955 | 3563 ft | 6 kts | 346° |
| 2026-05-05 23:41 | 51.12899 | -113.99965 | 3565 ft | 4 kts | 347° |
| 2026-05-05 23:41 | 51.12916 | -113.99971 | 3562 ft | 1 kts | 347° |
| 2026-05-05 23:41 | 51.12918 | -113.99972 | 3563 ft | 0 kts | 347° |